Observation data for Amarillo 7 South Southeast on 07/04/2020      Previous  Date  Next       Current Mesonet Observations  Soil Data  Daily Summary Page  Observations in Plain Language
KAM1 040500Z 01007KT 23/15 A3015 RMK A01 T02250145  RH  061%=      5-min Rain = 0
KAM1 040501Z 02008KT 23/15 A3015 RMK A01 T02250145  RH  060%=      5-min Rain = 0
KAM1 040502Z 02008KT 23/15 A3015 RMK A01 T02260145  RH  060%=      5-min Rain = 0
KAM1 040503Z 02008KT 23/15 A3015 RMK A01 T02270145  RH  060%=      5-min Rain = 0
KAM1 040504Z 02008KT 23/15 A3015 RMK A01 T02270145  RH  060%=      5-min Rain = 0
KAM1 040505Z 02008KT 23/15 A3015 RMK A01 T02260145  RH  060%=      5-min Rain = 0
KAM1 040506Z 03008KT 23/15 A3015 RMK A01 T02260145  RH  060%=      5-min Rain = 0
KAM1 040507Z 03008KT 23/15 A3015 RMK A01 T02260145  RH  060%=      5-min Rain = 0
KAM1 040508Z 02008KT 23/15 A3015 RMK A01 T02250145  RH  060%=      5-min Rain = 0
KAM1 040509Z 03009KT 23/15 A3015 RMK A01 T02250145  RH  060%=      5-min Rain = 0
KAM1 040510Z 03009KT 23/15 A3015 RMK A01 T02250146  RH  061%=      5-min Rain = 0
KAM1 040511Z 03010KT 23/15 A3015 RMK A01 T02260146  RH  061%=      5-min Rain = 0
KAM1 040512Z 03010KT 23/15 A3015 RMK A01 T02260147  RH  061%=      5-min Rain = 0
KAM1 040513Z 03010KT 23/15 A3015 RMK A01 T02260147  RH  061%=      5-min Rain = 0
KAM1 040514Z 03010KT 23/15 A3015 RMK A01 T02250147  RH  061%=      5-min Rain = 0
KAM1 040515Z 03010KT 23/15 A3015 RMK A01 T02250147  RH  061%=      5-min Rain = 0
KAM1 040516Z 04012KT 23/15 A3015 RMK A01 T02260148  RH  061%=      5-min Rain = 0
KAM1 040517Z 04012KT 23/15 A3015 RMK A01 T02250147  RH  062%=      5-min Rain = 0
KAM1 040518Z 04011KT 23/15 A3015 RMK A01 T02250148  RH  062%=      5-min Rain = 0
KAM1 040519Z 03011KT 23/15 A3015 RMK A01 T02250148  RH  062%=      5-min Rain = 0
KAM1 040520Z 03010KT 23/15 A3015 RMK A01 T02250149  RH  062%=      5-min Rain = 0
KAM1 040521Z 03010KT 23/15 A3015 RMK A01 T02250149  RH  062%=      5-min Rain = 0
KAM1 040522Z 03010KT 23/15 A3015 RMK A01 T02250149  RH  062%=      5-min Rain = 0
KAM1 040523Z 03010KT 23/15 A3015 RMK A01 T02250149  RH  062%=      5-min Rain = 0
KAM1 040524Z 04009KT 23/15 A3015 RMK A01 T02250150  RH  062%=      5-min Rain = 0
KAM1 040525Z 04010KT 23/15 A3015 RMK A01 T02250150  RH  063%=      5-min Rain = 0
KAM1 040526Z 04009KT 23/15 A3015 RMK A01 T02250150  RH  063%=      5-min Rain = 0
KAM1 040527Z 04009KT 23/15 A3015 RMK A01 T02250150  RH  063%=      5-min Rain = 0
KAM1 040528Z 04008KT 23/15 A3015 RMK A01 T02250150  RH  063%=      5-min Rain = 0
KAM1 040529Z 04010KT 22/15 A3015 RMK A01 T02240150  RH  063%=      5-min Rain = 0
KAM1 040530Z 04009G14KT 22/15 A3015 RMK A01 T02240150  RH  063%=      5-min Rain = 0
KAM1 040531Z 04010KT 22/15 A3015 RMK A01 T02240150  RH  063%=      5-min Rain = 0
KAM1 040532Z 04010KT 23/15 A3015 RMK A01 T02250150  RH  062%=      5-min Rain = 0
KAM1 040533Z 04010KT 23/15 A3015 RMK A01 T02260150  RH  062%=      5-min Rain = 0
KAM1 040534Z 04011KT 23/15 A3015 RMK A01 T02260150  RH  062%=      5-min Rain = 0
KAM1 040535Z 04011KT 23/15 A3015 RMK A01 T02260150  RH  062%=      5-min Rain = 0
KAM1 040536Z 04011KT 23/15 A3015 RMK A01 T02260150  RH  062%=      5-min Rain = 0
KAM1 040537Z 04010KT 23/15 A3015 RMK A01 T02270150  RH  062%=      5-min Rain = 0
KAM1 040538Z 04009KT 23/15 A3015 RMK A01 T02260150  RH  062%=      5-min Rain = 0
KAM1 040539Z 04010KT 23/15 A3015 RMK A01 T02260150  RH  062%=      5-min Rain = 0
KAM1 040540Z 04010KT 23/15 A3015 RMK A01 T02260150  RH  062%=      5-min Rain = 0
KAM1 040541Z 04010KT 23/15 A3015 RMK A01 T02260150  RH  062%=      5-min Rain = 0
KAM1 040542Z 04009KT 23/15 A3015 RMK A01 T02250151  RH  063%=      5-min Rain = 0
KAM1 040543Z 04010KT 23/15 A3015 RMK A01 T02250150  RH  063%=      5-min Rain = 0
KAM1 040544Z 05010KT 23/15 A3015 RMK A01 T02250150  RH  062%=      5-min Rain = 0
KAM1 040545Z 05009KT 23/15 A3015 RMK A01 T02260150  RH  062%=      5-min Rain = 0
KAM1 040546Z 05009KT 23/15 A3015 RMK A01 T02260150  RH  062%=      5-min Rain = 0
KAM1 040547Z 04010KT 23/15 A3014 RMK A01 T02260150  RH  062%=      5-min Rain = 0
KAM1 040548Z 04009KT 23/15 A3014 RMK A01 T02260150  RH  062%=      5-min Rain = 0
KAM1 040549Z 05008KT 23/15 A3014 RMK A01 T02260150  RH  062%=      5-min Rain = 0
KAM1 040550Z 05009KT 23/15 A3014 RMK A01 T02260150  RH  062%=      5-min Rain = 0
KAM1 040551Z 05009KT 23/15 A3014 RMK A01 T02260150  RH  062%=      5-min Rain = 0
KAM1 040552Z 05010KT 23/15 A3014 RMK A01 T02260150  RH  062%=      5-min Rain = 0
KAM1 040553Z 05009KT 23/15 A3014 RMK A01 T02270149  RH  062%=      5-min Rain = 0
KAM1 040554Z 05009KT 23/15 A3014 RMK A01 T02270149  RH  062%=      5-min Rain = 0
KAM1 040555Z 05009KT 23/15 A3014 RMK A01 T02270149  RH  061%=      5-min Rain = 0
KAM1 040556Z 05009KT 23/15 A3014 RMK A01 T02270149  RH  061%=      5-min Rain = 0
KAM1 040557Z 05008KT 23/15 A3014 RMK A01 T02280149  RH  061%=      5-min Rain = 0
KAM1 040558Z 05008KT 23/15 A3014 RMK A01 T02280148  RH  061%=      5-min Rain = 0
KAM1 040559Z 05008KT 23/15 A3014 RMK A01 T02280148  RH  061%=      5-min Rain = 0
KAM1 040600Z 05009KT 23/15 A3014 RMK A01 T02280148  RH  060%=      5-min Rain = 0
KAM1 040601Z 05008KT 23/15 A3014 RMK A01 T02290147  RH  060%=      5-min Rain = 0
KAM1 040602Z 04008KT 23/15 A3014 RMK A01 T02290147  RH  060%=      5-min Rain = 0
KAM1 040603Z 04007KT 23/15 A3014 RMK A01 T02290147  RH  060%=      5-min Rain = 0
KAM1 040604Z 04007KT 23/15 A3014 RMK A01 T02290147  RH  060%=      5-min Rain = 0
KAM1 040605Z 04008KT 23/15 A3014 RMK A01 T02290147  RH  060%=      5-min Rain = 0
KAM1 040606Z 03007KT 23/15 A3014 RMK A01 T02290147  RH  060%=      5-min Rain = 0
KAM1 040607Z 04007KT 23/15 A3014 RMK A01 T02290147  RH  060%=      5-min Rain = 0
KAM1 040608Z 03007KT 23/15 A3014 RMK A01 T02280147  RH  060%=      5-min Rain = 0
KAM1 040609Z 02007KT 23/15 A3014 RMK A01 T02280147  RH  060%=      5-min Rain = 0
KAM1 040610Z 02007KT 23/15 A3014 RMK A01 T02270147  RH  061%=      5-min Rain = 0
KAM1 040611Z 02006KT 23/15 A3014 RMK A01 T02260147  RH  061%=      5-min Rain = 0
KAM1 040612Z 02008KT 23/15 A3014 RMK A01 T02250147  RH  061%=      5-min Rain = 0
KAM1 040613Z 02007KT 23/15 A3014 RMK A01 T02250147  RH  061%=      5-min Rain = 0
KAM1 040614Z 01007KT 23/15 A3014 RMK A01 T02250146  RH  061%=      5-min Rain = 0
KAM1 040615Z 01007KT 23/15 A3014 RMK A01 T02250147  RH  061%=      5-min Rain = 0
KAM1 040616Z 01007KT 22/15 A3014 RMK A01 T02240146  RH  061%=      5-min Rain = 0
KAM1 040617Z 01007KT 22/15 A3014 RMK A01 T02240146  RH  061%=      5-min Rain = 0
KAM1 040618Z 00006KT 22/15 A3014 RMK A01 T02240145  RH  061%=      5-min Rain = 0
KAM1 040619Z 01006KT 22/15 A3014 RMK A01 T02240145  RH  061%=      5-min Rain = 0
KAM1 040620Z 02007KT 22/15 A3014 RMK A01 T02230145  RH  061%=      5-min Rain = 0
KAM1 040621Z 02007KT 22/15 A3014 RMK A01 T02230145  RH  061%=      5-min Rain = 0
KAM1 040622Z 02008KT 22/14 A3014 RMK A01 T02230144  RH  061%=      5-min Rain = 0
KAM1 040623Z 02008KT 22/15 A3014 RMK A01 T02240145  RH  061%=      5-min Rain = 0
KAM1 040624Z 03007KT 22/15 A3014 RMK A01 T02240145  RH  061%=      5-min Rain = 0
KAM1 040625Z 03007KT 22/15 A3014 RMK A01 T02230145  RH  061%=      5-min Rain = 0
KAM1 040626Z 03008KT 22/14 A3014 RMK A01 T02230144  RH  061%=      5-min Rain = 0
KAM1 040627Z 04007KT 22/14 A3014 RMK A01 T02230144  RH  061%=      5-min Rain = 0
KAM1 040628Z 03008KT 22/14 A3014 RMK A01 T02240144  RH  061%=      5-min Rain = 0
KAM1 040629Z 04009KT 22/14 A3014 RMK A01 T02240143  RH  060%=      5-min Rain = 0
KAM1 040630Z 04009KT 22/14 A3014 RMK A01 T02240143  RH  060%=      5-min Rain = 0
KAM1 040631Z 04009KT 23/14 A3014 RMK A01 T02250142  RH  060%=      5-min Rain = 0
KAM1 040632Z 04008KT 23/14 A3014 RMK A01 T02250142  RH  059%=      5-min Rain = 0
KAM1 040633Z 04007KT 23/14 A3014 RMK A01 T02250142  RH  059%=      5-min Rain = 0
KAM1 040634Z 04007KT 23/14 A3014 RMK A01 T02250142  RH  059%=      5-min Rain = 0
KAM1 040635Z 04006KT 23/14 A3014 RMK A01 T02250142  RH  059%=      5-min Rain = 0
KAM1 040636Z 04006KT 23/14 A3014 RMK A01 T02250141  RH  059%=      5-min Rain = 0
KAM1 040637Z 04007KT 22/14 A3014 RMK A01 T02240141  RH  059%=      5-min Rain = 0
KAM1 040638Z 04006KT 23/14 A3014 RMK A01 T02250141  RH  059%=      5-min Rain = 0
KAM1 040639Z 04006KT 22/14 A3014 RMK A01 T02240140  RH  059%=      5-min Rain = 0
KAM1 040640Z 04006KT 22/14 A3014 RMK A01 T02240141  RH  059%=      5-min Rain = 0
KAM1 040641Z 04006KT 22/14 A3014 RMK A01 T02240140  RH  059%=      5-min Rain = 0
KAM1 040642Z 04006KT 22/14 A3014 RMK A01 T02240140  RH  059%=      5-min Rain = 0
KAM1 040643Z 05005KT 22/14 A3014 RMK A01 T02240140  RH  059%=      5-min Rain = 0
KAM1 040644Z 05005KT 22/14 A3014 RMK A01 T02240140  RH  059%=      5-min Rain = 0
KAM1 040645Z 05004KT 23/14 A3014 RMK A01 T02250140  RH  059%=      5-min Rain = 0
KAM1 040646Z 05004KT 22/14 A3014 RMK A01 T02240140  RH  059%=      5-min Rain = 0
KAM1 040647Z 06004KT 22/14 A3014 RMK A01 T02240139  RH  059%=      5-min Rain = 0
KAM1 040648Z 05004KT 22/14 A3014 RMK A01 T02240138  RH  058%=      5-min Rain = 0
KAM1 040649Z 04004KT 22/14 A3014 RMK A01 T02240139  RH  058%=      5-min Rain = 0
KAM1 040650Z 04004KT 22/14 A3014 RMK A01 T02240138  RH  058%=      5-min Rain = 0
KAM1 040651Z 04004KT 23/14 A3014 RMK A01 T02250138  RH  058%=      5-min Rain = 0
KAM1 040652Z 04004KT 23/14 A3014 RMK A01 T02250138  RH  058%=      5-min Rain = 0
KAM1 040653Z 04004KT 22/14 A3014 RMK A01 T02240138  RH  058%=      5-min Rain = 0
KAM1 040654Z 04004KT 23/14 A3014 RMK A01 T02250138  RH  058%=      5-min Rain = 0
KAM1 040655Z 03006KT 22/14 A3014 RMK A01 T02240138  RH  058%=      5-min Rain = 0
KAM1 040656Z 03007KT 22/14 A3014 RMK A01 T02240137  RH  058%=      5-min Rain = 0
KAM1 040657Z 03007KT 22/14 A3014 RMK A01 T02240136  RH  057%=      5-min Rain = 0
KAM1 040658Z 03007KT 22/14 A3014 RMK A01 T02240136  RH  057%=      5-min Rain = 0
KAM1 040659Z 04008KT 23/14 A3014 RMK A01 T02250135  RH  057%=      5-min Rain = 0
KAM1 040700Z 04007KT 23/14 A3014 RMK A01 T02260135  RH  057%=      5-min Rain = 0
KAM1 040701Z 04007KT 23/14 A3014 RMK A01 T02270135  RH  056%=      5-min Rain = 0
KAM1 040702Z 04007KT 23/14 A3014 RMK A01 T02270135  RH  056%=      5-min Rain = 0
KAM1 040703Z 04007KT 23/14 A3014 RMK A01 T02280135  RH  056%=      5-min Rain = 0
KAM1 040704Z 04007KT 23/13 A3014 RMK A01 T02280134  RH  055%=      5-min Rain = 0
KAM1 040705Z 04006KT 23/13 A3014 RMK A01 T02280134  RH  055%=      5-min Rain = 0
KAM1 040706Z 04007KT 23/14 A3014 RMK A01 T02290135  RH  055%=      5-min Rain = 0
KAM1 040707Z 05008KT 23/14 A3014 RMK A01 T02290135  RH  055%=      5-min Rain = 0
KAM1 040708Z 04009KT 23/14 A3014 RMK A01 T02290135  RH  055%=      5-min Rain = 0
KAM1 040709Z 05010KT 23/13 A3014 RMK A01 T02290134  RH  055%=      5-min Rain = 0
KAM1 040710Z 05011KT 23/13 A3014 RMK A01 T02300134  RH  055%=      5-min Rain = 0
KAM1 040711Z 05012KT 23/13 A3013 RMK A01 T02310134  RH  054%=      5-min Rain = 0
KAM1 040712Z 05011KT 23/14 A3013 RMK A01 T02320135  RH  054%=      5-min Rain = 0
KAM1 040713Z 05010KT 23/14 A3013 RMK A01 T02330135  RH  054%=      5-min Rain = 0
KAM1 040714Z 05010KT 23/14 A3013 RMK A01 T02330135  RH  054%=      5-min Rain = 0
KAM1 040715Z 05010KT 23/14 A3013 RMK A01 T02330135  RH  054%=      5-min Rain = 0
KAM1 040716Z 05011KT 23/13 A3013 RMK A01 T02330134  RH  054%=      5-min Rain = 0
KAM1 040717Z 05010KT 23/13 A3013 RMK A01 T02340134  RH  053%=      5-min Rain = 0
KAM1 040718Z 05011KT 24/13 A3013 RMK A01 T02350134  RH  053%=      5-min Rain = 0
KAM1 040719Z 05011KT 24/13 A3013 RMK A01 T02350134  RH  053%=      5-min Rain = 0
KAM1 040720Z 06012KT 24/13 A3013 RMK A01 T02360134  RH  053%=      5-min Rain = 0
KAM1 040721Z 06010KT 24/13 A3013 RMK A01 T02370134  RH  053%=      5-min Rain = 0
KAM1 040722Z 06013KT 24/13 A3013 RMK A01 T02360134  RH  053%=      5-min Rain = 0
KAM1 040723Z 06011KT 24/13 A3013 RMK A01 T02370134  RH  053%=      5-min Rain = 0
KAM1 040724Z 06010KT 24/14 A3013 RMK A01 T02370135  RH  053%=      5-min Rain = 0
KAM1 040725Z 06010KT 24/14 A3013 RMK A01 T02370135  RH  053%=      5-min Rain = 0
KAM1 040726Z 06011KT 24/14 A3013 RMK A01 T02370135  RH  053%=      5-min Rain = 0
KAM1 040727Z 06011KT 24/14 A3013 RMK A01 T02370135  RH  053%=      5-min Rain = 0
KAM1 040728Z 06011KT 24/14 A3013 RMK A01 T02360135  RH  053%=      5-min Rain = 0
KAM1 040729Z 06011KT 24/14 A3013 RMK A01 T02360135  RH  053%=      5-min Rain = 0
KAM1 040730Z 06011KT 24/14 A3013 RMK A01 T02360135  RH  053%=      5-min Rain = 0
KAM1 040731Z 06009KT 24/14 A3013 RMK A01 T02360135  RH  053%=      5-min Rain = 0
KAM1 040732Z 06009KT 24/14 A3013 RMK A01 T02360135  RH  053%=      5-min Rain = 0
KAM1 040733Z 06011KT 24/14 A3013 RMK A01 T02360135  RH  053%=      5-min Rain = 0
KAM1 040734Z 06011KT 24/14 A3013 RMK A01 T02360135  RH  053%=      5-min Rain = 0
KAM1 040735Z 06011KT 24/14 A3013 RMK A01 T02360135  RH  053%=      5-min Rain = 0
KAM1 040736Z 06010KT 24/14 A3013 RMK A01 T02360135  RH  053%=      5-min Rain = 0
KAM1 040737Z 06010KT 24/14 A3013 RMK A01 T02360135  RH  053%=      5-min Rain = 0
KAM1 040738Z 06010KT 24/14 A3013 RMK A01 T02360135  RH  053%=      5-min Rain = 0
KAM1 040739Z 06009KT 24/14 A3013 RMK A01 T02360135  RH  053%=      5-min Rain = 0
KAM1 040740Z 05008KT 24/14 A3013 RMK A01 T02360135  RH  053%=      5-min Rain = 0
KAM1 040741Z 05009KT 24/14 A3013 RMK A01 T02360135  RH  053%=      5-min Rain = 0
KAM1 040742Z 05008KT 24/14 A3013 RMK A01 T02360136  RH  053%=      5-min Rain = 0
KAM1 040743Z 05008KT 24/14 A3013 RMK A01 T02360135  RH  053%=      5-min Rain = 0
KAM1 040744Z 06009KT 24/14 A3013 RMK A01 T02350135  RH  053%=      5-min Rain = 0
KAM1 040745Z 05010KT 24/14 A3013 RMK A01 T02360136  RH  053%=      5-min Rain = 0
KAM1 040746Z 06009KT 24/14 A3013 RMK A01 T02350136  RH  053%=      5-min Rain = 0
KAM1 040747Z 06010KT 24/14 A3013 RMK A01 T02360136  RH  053%=      5-min Rain = 0
KAM1 040748Z 06011KT 24/14 A3013 RMK A01 T02350136  RH  053%=      5-min Rain = 0
KAM1 040749Z 06010KT 24/14 A3013 RMK A01 T02360136  RH  053%=      5-min Rain = 0
KAM1 040750Z 06010KT 24/14 A3013 RMK A01 T02360136  RH  053%=      5-min Rain = 0
KAM1 040751Z 06010KT 24/14 A3013 RMK A01 T02360136  RH  053%=      5-min Rain = 0
KAM1 040752Z 06009KT 24/14 A3013 RMK A01 T02360136  RH  054%=      5-min Rain = 0
KAM1 040753Z 06009KT 24/14 A3013 RMK A01 T02350136  RH  054%=      5-min Rain = 0
KAM1 040754Z 07009KT 24/14 A3013 RMK A01 T02360136  RH  054%=      5-min Rain = 0
KAM1 040755Z 06011KT 24/14 A3013 RMK A01 T02360137  RH  054%=      5-min Rain = 0
KAM1 040756Z 06011KT 24/14 A3013 RMK A01 T02350137  RH  054%=      5-min Rain = 0
KAM1 040757Z 06010KT 24/14 A3013 RMK A01 T02350137  RH  054%=      5-min Rain = 0
KAM1 040758Z 06011KT 24/14 A3013 RMK A01 T02350137  RH  054%=      5-min Rain = 0
KAM1 040759Z 07011KT 23/14 A3013 RMK A01 T02340137  RH  054%=      5-min Rain = 0
KAM1 040800Z 07011KT 23/14 A3013 RMK A01 T02340137  RH  054%=      5-min Rain = 0
KAM1 040801Z 06009KT 23/14 A3013 RMK A01 T02340137  RH  054%=      5-min Rain = 0
KAM1 040802Z 06009KT 23/14 A3013 RMK A01 T02340137  RH  055%=      5-min Rain = 0
KAM1 040803Z 06010KT 23/14 A3013 RMK A01 T02340137  RH  055%=      5-min Rain = 0
KAM1 040804Z 06010KT 23/14 A3013 RMK A01 T02340138  RH  055%=      5-min Rain = 0
KAM1 040805Z 06009KT 23/14 A3013 RMK A01 T02340138  RH  055%=      5-min Rain = 0
KAM1 040806Z 06009KT 23/14 A3013 RMK A01 T02340138  RH  055%=      5-min Rain = 0
KAM1 040807Z 06008KT 23/14 A3013 RMK A01 T02330138  RH  055%=      5-min Rain = 0
KAM1 040808Z 06009KT 23/14 A3013 RMK A01 T02330138  RH  055%=      5-min Rain = 0
KAM1 040809Z 07010KT 23/14 A3013 RMK A01 T02330138  RH  055%=      5-min Rain = 0
KAM1 040810Z 06010KT 23/14 A3013 RMK A01 T02330138  RH  055%=      5-min Rain = 0
KAM1 040811Z 06010KT 23/14 A3013 RMK A01 T02330138  RH  055%=      5-min Rain = 0
KAM1 040812Z 07009KT 23/14 A3013 RMK A01 T02330138  RH  055%=      5-min Rain = 0
KAM1 040813Z 07007KT 23/14 A3013 RMK A01 T02330139  RH  055%=      5-min Rain = 0
KAM1 040814Z 07009KT 23/14 A3013 RMK A01 T02320139  RH  055%=      5-min Rain = 0
KAM1 040815Z 06009KT 23/14 A3013 RMK A01 T02320139  RH  056%=      5-min Rain = 0
KAM1 040816Z 06009KT 23/14 A3013 RMK A01 T02320139  RH  056%=      5-min Rain = 0
KAM1 040817Z 06008KT 23/14 A3013 RMK A01 T02320139  RH  056%=      5-min Rain = 0
KAM1 040818Z 06008KT 23/14 A3013 RMK A01 T02320139  RH  056%=      5-min Rain = 0
KAM1 040819Z 06010KT 23/14 A3013 RMK A01 T02320139  RH  056%=      5-min Rain = 0
KAM1 040820Z 06009KT 23/14 A3013 RMK A01 T02320139  RH  056%=      5-min Rain = 0
KAM1 040821Z 06009KT 23/14 A3013 RMK A01 T02320139  RH  056%=      5-min Rain = 0
KAM1 040822Z 06009KT 23/14 A3013 RMK A01 T02320139  RH  056%=      5-min Rain = 0
KAM1 040823Z 06010KT 23/14 A3013 RMK A01 T02320139  RH  056%=      5-min Rain = 0
KAM1 040824Z 06010KT 23/14 A3013 RMK A01 T02320139  RH  056%=      5-min Rain = 0
KAM1 040825Z 06010KT 23/14 A3013 RMK A01 T02320139  RH  056%=      5-min Rain = 0
KAM1 040826Z 06011KT 23/14 A3013 RMK A01 T02320139  RH  056%=      5-min Rain = 0
KAM1 040827Z 05011KT 23/14 A3013 RMK A01 T02320139  RH  056%=      5-min Rain = 0
KAM1 040828Z 06012KT 23/14 A3013 RMK A01 T02320139  RH  056%=      5-min Rain = 0
KAM1 040829Z 06011KT 23/14 A3013 RMK A01 T02320139  RH  056%=      5-min Rain = 0
KAM1 040830Z 06010KT 23/14 A3013 RMK A01 T02320139  RH  056%=      5-min Rain = 0
KAM1 040831Z 05013KT 23/14 A3013 RMK A01 T02320139  RH  056%=      5-min Rain = 0
KAM1 040832Z 06012KT 23/14 A3013 RMK A01 T02320138  RH  055%=      5-min Rain = 0
KAM1 040833Z 06012KT 23/14 A3013 RMK A01 T02320138  RH  055%=      5-min Rain = 0
KAM1 040834Z 05012KT 23/14 A3013 RMK A01 T02330138  RH  055%=      5-min Rain = 0
KAM1 040835Z 05013KT 23/14 A3014 RMK A01 T02330138  RH  055%=      5-min Rain = 0
KAM1 040836Z 05012KT 23/14 A3014 RMK A01 T02330138  RH  055%=      5-min Rain = 0
KAM1 040837Z 05011KT 23/14 A3014 RMK A01 T02330138  RH  055%=      5-min Rain = 0
KAM1 040838Z 05011KT 23/14 A3014 RMK A01 T02330138  RH  055%=      5-min Rain = 0
KAM1 040839Z 04011KT 23/14 A3014 RMK A01 T02330138  RH  055%=      5-min Rain = 0
KAM1 040840Z 04012KT 23/14 A3014 RMK A01 T02330137  RH  055%=      5-min Rain = 0
KAM1 040841Z 05010KT 23/14 A3014 RMK A01 T02330138  RH  055%=      5-min Rain = 0
KAM1 040842Z 05012KT 23/14 A3014 RMK A01 T02330138  RH  055%=      5-min Rain = 0
KAM1 040843Z 05012KT 23/14 A3014 RMK A01 T02330139  RH  055%=      5-min Rain = 0
KAM1 040844Z 05014KT 23/14 A3014 RMK A01 T02330139  RH  056%=      5-min Rain = 0
KAM1 040845Z 04012KT 23/14 A3014 RMK A01 T02330140  RH  056%=      5-min Rain = 0
KAM1 040846Z 05012KT 23/14 A3014 RMK A01 T02320140  RH  056%=      5-min Rain = 0
KAM1 040847Z 04011KT 23/14 A3014 RMK A01 T02320140  RH  056%=      5-min Rain = 0
KAM1 040848Z 04011KT 23/14 A3014 RMK A01 T02320141  RH  056%=      5-min Rain = 0
KAM1 040849Z 05012KT 23/14 A3014 RMK A01 T02320141  RH  057%=      5-min Rain = 0
KAM1 040850Z 04011KT 23/14 A3014 RMK A01 T02320141  RH  057%=      5-min Rain = 0
KAM1 040851Z 04013KT 23/14 A3014 RMK A01 T02310141  RH  057%=      5-min Rain = 0
KAM1 040852Z 04012KT 23/14 A3014 RMK A01 T02310141  RH  057%=      5-min Rain = 0
KAM1 040853Z 04011KT 23/14 A3014 RMK A01 T02310142  RH  057%=      5-min Rain = 0
KAM1 040854Z 05011KT 23/14 A3014 RMK A01 T02310141  RH  057%=      5-min Rain = 0
KAM1 040855Z 05012KT 23/14 A3014 RMK A01 T02320142  RH  057%=      5-min Rain = 0
KAM1 040856Z 05011KT 23/14 A3014 RMK A01 T02310141  RH  057%=      5-min Rain = 0
KAM1 040857Z 05011KT 23/14 A3014 RMK A01 T02310141  RH  057%=      5-min Rain = 0
KAM1 040858Z 04010KT 23/14 A3014 RMK A01 T02310141  RH  057%=      5-min Rain = 0
KAM1 040859Z 05012KT 23/14 A3014 RMK A01 T02310141  RH  057%=      5-min Rain = 0
KAM1 040900Z 05011KT 23/14 A3015 RMK A01 T02310141  RH  057%=      5-min Rain = 0
KAM1 040901Z 05011KT 23/14 A3015 RMK A01 T02320141  RH  056%=      5-min Rain = 0
KAM1 040902Z 05011KT 23/14 A3015 RMK A01 T02320141  RH  056%=      5-min Rain = 0
KAM1 040903Z 04014KT 23/14 A3015 RMK A01 T02320141  RH  056%=      5-min Rain = 0
KAM1 040904Z 05012KT 23/14 A3015 RMK A01 T02320141  RH  056%=      5-min Rain = 0
KAM1 040905Z 05011KT 23/14 A3015 RMK A01 T02320141  RH  056%=      5-min Rain = 0
KAM1 040906Z 05011KT 23/14 A3015 RMK A01 T02320141  RH  057%=      5-min Rain = 0
KAM1 040907Z 04010KT 23/14 A3015 RMK A01 T02320141  RH  057%=      5-min Rain = 0
KAM1 040908Z 05010KT 23/14 A3015 RMK A01 T02320142  RH  057%=      5-min Rain = 0
KAM1 040909Z 05012KT 23/14 A3015 RMK A01 T02320141  RH  057%=      5-min Rain = 0
KAM1 040910Z 05011KT 23/14 A3015 RMK A01 T02320141  RH  057%=      5-min Rain = 0
KAM1 040911Z 05011KT 23/14 A3015 RMK A01 T02320141  RH  056%=      5-min Rain = 0
KAM1 040912Z 05011KT 23/14 A3015 RMK A01 T02320141  RH  056%=      5-min Rain = 0
KAM1 040913Z 05013KT 23/14 A3015 RMK A01 T02320141  RH  056%=      5-min Rain = 0
KAM1 040914Z 05012KT 23/14 A3015 RMK A01 T02320141  RH  056%=      5-min Rain = 0
KAM1 040915Z 06015KT 23/14 A3015 RMK A01 T02320140  RH  056%=      5-min Rain = 0
KAM1 040916Z 05014KT 23/14 A3015 RMK A01 T02320140  RH  056%=      5-min Rain = 0
KAM1 040917Z 05014KT 23/14 A3015 RMK A01 T02320140  RH  056%=      5-min Rain = 0
KAM1 040918Z 05012KT 23/14 A3015 RMK A01 T02320140  RH  056%=      5-min Rain = 0
KAM1 040919Z 05014KT 23/14 A3015 RMK A01 T02320140  RH  056%=      5-min Rain = 0
KAM1 040920Z 05015KT 23/14 A3015 RMK A01 T02320140  RH  056%=      5-min Rain = 0
KAM1 040921Z 06014KT 23/14 A3015 RMK A01 T02320139  RH  056%=      5-min Rain = 0
KAM1 040922Z 05013KT 23/14 A3015 RMK A01 T02320140  RH  056%=      5-min Rain = 0
KAM1 040923Z 06013KT 23/14 A3015 RMK A01 T02320139  RH  056%=      5-min Rain = 0
KAM1 040924Z 06013KT 23/14 A3015 RMK A01 T02320139  RH  056%=      5-min Rain = 0
KAM1 040925Z 06010KT 23/14 A3015 RMK A01 T02310139  RH  056%=      5-min Rain = 0
KAM1 040926Z 06011KT 23/14 A3015 RMK A01 T02310139  RH  056%=      5-min Rain = 0
KAM1 040927Z 06014KT 23/14 A3015 RMK A01 T02310139  RH  056%=      5-min Rain = 0
KAM1 040928Z 06013KT 23/14 A3015 RMK A01 T02310138  RH  056%=      5-min Rain = 0
KAM1 040929Z 06013KT 23/14 A3015 RMK A01 T02310137  RH  055%=      5-min Rain = 0
KAM1 040930Z 06013KT 23/14 A3015 RMK A01 T02310137  RH  055%=      5-min Rain = 0
KAM1 040931Z 07012KT 23/14 A3015 RMK A01 T02310136  RH  055%=      5-min Rain = 0
KAM1 040932Z 07014KT 23/14 A3015 RMK A01 T02310136  RH  055%=      5-min Rain = 0
KAM1 040933Z 06012KT 23/14 A3015 RMK A01 T02320135  RH  055%=      5-min Rain = 0
KAM1 040934Z 06008KT 23/14 A3015 RMK A01 T02320135  RH  054%=      5-min Rain = 0
KAM1 040935Z 06008KT 23/14 A3015 RMK A01 T02320135  RH  054%=      5-min Rain = 0
KAM1 040936Z 06009KT 23/14 A3015 RMK A01 T02320135  RH  054%=      5-min Rain = 0
KAM1 040937Z 05008KT 23/14 A3015 RMK A01 T02320135  RH  054%=      5-min Rain = 0
KAM1 040938Z 06008KT 23/14 A3015 RMK A01 T02320135  RH  054%=      5-min Rain = 0
KAM1 040939Z 04006KT 23/13 A3015 RMK A01 T02310134  RH  054%=      5-min Rain = 0
KAM1 040940Z 03005KT 23/13 A3015 RMK A01 T02310134  RH  054%=      5-min Rain = 0
KAM1 040941Z 01004KT 23/13 A3015 RMK A01 T02310134  RH  054%=      5-min Rain = 0
KAM1 040942Z 00005KT 23/13 A3015 RMK A01 T02300134  RH  055%=      5-min Rain = 0
KAM1 040943Z 36007KT 23/13 A3015 RMK A01 T02300133  RH  055%=      5-min Rain = 0
KAM1 040944Z 34008KT 23/13 A3015 RMK A01 T02300134  RH  055%=      5-min Rain = 0
KAM1 040945Z 33006KT 23/13 A3015 RMK A01 T02300134  RH  055%=      5-min Rain = 0
KAM1 040946Z 33006KT 23/14 A3015 RMK A01 T02290135  RH  055%=      5-min Rain = 0
KAM1 040947Z 34006KT 23/14 A3015 RMK A01 T02280135  RH  056%=      5-min Rain = 0
KAM1 040948Z 33007KT 23/14 A3015 RMK A01 T02270135  RH  056%=      5-min Rain = 0
KAM1 040949Z 34006KT 23/14 A3015 RMK A01 T02270136  RH  056%=      5-min Rain = 0
KAM1 040950Z 33005KT 23/14 A3015 RMK A01 T02270136  RH  057%=      5-min Rain = 0
KAM1 040951Z 34006KT 23/14 A3015 RMK A01 T02260136  RH  057%=      5-min Rain = 0
KAM1 040952Z 35005KT 23/14 A3015 RMK A01 T02250136  RH  057%=      5-min Rain = 0
KAM1 040953Z 35005KT 22/14 A3015 RMK A01 T02240136  RH  057%=      5-min Rain = 0
KAM1 040954Z 34007KT 22/14 A3015 RMK A01 T02230136  RH  058%=      5-min Rain = 0
KAM1 040955Z 34007KT 22/14 A3015 RMK A01 T02230135  RH  058%=      5-min Rain = 0
KAM1 040956Z 34007KT 22/14 A3015 RMK A01 T02230136  RH  058%=      5-min Rain = 0
KAM1 040957Z 34009KT 22/14 A3015 RMK A01 T02230136  RH  058%=      5-min Rain = 0
KAM1 040958Z 35009KT 22/14 A3015 RMK A01 T02230135  RH  057%=      5-min Rain = 0
KAM1 040959Z 35010KT 22/13 A3015 RMK A01 T02240134  RH  057%=      5-min Rain = 0
KAM1 041000Z 35010KT 23/13 A3015 RMK A01 T02250134  RH  056%=      5-min Rain = 0
KAM1 041001Z 34010KT 23/13 A3015 RMK A01 T02260134  RH  056%=      5-min Rain = 0
KAM1 041002Z 34009KT 23/13 A3015 RMK A01 T02260134  RH  056%=      5-min Rain = 0
KAM1 041003Z 34010KT 23/13 A3015 RMK A01 T02260134  RH  056%=      5-min Rain = 0
KAM1 041004Z 34009KT 23/13 A3015 RMK A01 T02260133  RH  056%=      5-min Rain = 0
KAM1 041005Z 34007KT 23/13 A3015 RMK A01 T02260133  RH  056%=      5-min Rain = 0
KAM1 041006Z 34010KT 23/13 A3015 RMK A01 T02250133  RH  056%=      5-min Rain = 0
KAM1 041007Z 33009KT 23/13 A3015 RMK A01 T02250133  RH  056%=      5-min Rain = 0
KAM1 041008Z 33008KT 22/13 A3015 RMK A01 T02240134  RH  056%=      5-min Rain = 0
KAM1 041009Z 33009KT 22/13 A3015 RMK A01 T02240133  RH  057%=      5-min Rain = 0
KAM1 041010Z 33008KT 22/13 A3015 RMK A01 T02240134  RH  057%=      5-min Rain = 0
KAM1 041011Z 33009KT 22/13 A3015 RMK A01 T02230133  RH  057%=      5-min Rain = 0
KAM1 041012Z 33008KT 22/13 A3015 RMK A01 T02220133  RH  057%=      5-min Rain = 0
KAM1 041013Z 34008KT 22/13 A3015 RMK A01 T02220134  RH  057%=      5-min Rain = 0
KAM1 041014Z 34009KT 22/13 A3015 RMK A01 T02210133  RH  057%=      5-min Rain = 0
KAM1 041015Z 34008KT 22/13 A3015 RMK A01 T02210134  RH  057%=      5-min Rain = 0
KAM1 041016Z 34008KT 22/13 A3015 RMK A01 T02210133  RH  058%=      5-min Rain = 0
KAM1 041017Z 33008KT 22/13 A3015 RMK A01 T02200133  RH  058%=      5-min Rain = 0
KAM1 041018Z 33009KT 22/13 A3015 RMK A01 T02190133  RH  058%=      5-min Rain = 0
KAM1 041019Z 33009KT 22/13 A3015 RMK A01 T02190134  RH  058%=      5-min Rain = 0
KAM1 041020Z 33010KT 22/13 A3015 RMK A01 T02190134  RH  058%=      5-min Rain = 0
KAM1 041021Z 33009KT 22/13 A3015 RMK A01 T02190134  RH  058%=      5-min Rain = 0
KAM1 041022Z 34010KT 22/13 A3015 RMK A01 T02180133  RH  058%=      5-min Rain = 0
KAM1 041023Z 34010KT 22/13 A3015 RMK A01 T02180133  RH  058%=      5-min Rain = 0
KAM1 041024Z 34010KT 22/13 A3015 RMK A01 T02180134  RH  058%=      5-min Rain = 0
KAM1 041025Z 34010KT 22/13 A3015 RMK A01 T02180133  RH  059%=      5-min Rain = 0
KAM1 041026Z 34010KT 22/13 A3015 RMK A01 T02180134  RH  059%=      5-min Rain = 0
KAM1 041027Z 33008KT 22/13 A3015 RMK A01 T02180134  RH  059%=      5-min Rain = 0
KAM1 041028Z 34010KT 22/13 A3015 RMK A01 T02180134  RH  059%=      5-min Rain = 0
KAM1 041029Z 34009KT 22/14 A3015 RMK A01 T02170135  RH  060%=      5-min Rain = 0
KAM1 041030Z 34010KT 22/14 A3015 RMK A01 T02170136  RH  060%=      5-min Rain = 0
KAM1 041031Z 34010KT 22/14 A3015 RMK A01 T02170136  RH  060%=      5-min Rain = 0
KAM1 041032Z 34009KT 22/14 A3015 RMK A01 T02160136  RH  060%=      5-min Rain = 0
KAM1 041033Z 33008KT 22/14 A3015 RMK A01 T02150136  RH  061%=      5-min Rain = 0
KAM1 041034Z 34009KT 22/14 A3015 RMK A01 T02150137  RH  061%=      5-min Rain = 0
KAM1 041035Z 33011KT 21/14 A3015 RMK A01 T02140138  RH  062%=      5-min Rain = 0
KAM1 041036Z 34010KT 21/14 A3015 RMK A01 T02140139  RH  062%=      5-min Rain = 0
KAM1 041037Z 33011KT 21/14 A3015 RMK A01 T02140140  RH  063%=      5-min Rain = 0
KAM1 041038Z 33009KT 21/14 A3015 RMK A01 T02140141  RH  063%=      5-min Rain = 0
KAM1 041039Z 33010KT 21/14 A3015 RMK A01 T02140141  RH  063%=      5-min Rain = 0
KAM1 041040Z 33009KT 21/14 A3015 RMK A01 T02130141  RH  063%=      5-min Rain = 0
KAM1 041041Z 33009KT 21/14 A3015 RMK A01 T02130141  RH  064%=      5-min Rain = 0
KAM1 041042Z 33008KT 21/14 A3015 RMK A01 T02120142  RH  064%=      5-min Rain = 0
KAM1 041043Z 34009KT 21/14 A3015 RMK A01 T02120142  RH  064%=      5-min Rain = 0
KAM1 041044Z 34009KT 21/14 A3015 RMK A01 T02110142  RH  065%=      5-min Rain = 0
KAM1 041045Z 34010KT 21/14 A3015 RMK A01 T02110143  RH  065%=      5-min Rain = 0
KAM1 041046Z 34010KT 21/14 A3015 RMK A01 T02110143  RH  065%=      5-min Rain = 0
KAM1 041047Z 34009KT 21/14 A3015 RMK A01 T02110144  RH  065%=      5-min Rain = 0
KAM1 041048Z 34010KT 21/14 A3015 RMK A01 T02110144  RH  066%=      5-min Rain = 0
KAM1 041049Z 34010KT 21/15 A3015 RMK A01 T02100145  RH  066%=      5-min Rain = 0
KAM1 041050Z 33011KT 21/15 A3015 RMK A01 T02100146  RH  067%=      5-min Rain = 0
KAM1 041051Z 33010KT 21/15 A3015 RMK A01 T02100147  RH  067%=      5-min Rain = 0
KAM1 041052Z 33010KT 21/15 A3015 RMK A01 T02100147  RH  067%=      5-min Rain = 0
KAM1 041053Z 33011KT 21/15 A3015 RMK A01 T02100148  RH  068%=      5-min Rain = 0
KAM1 041054Z 33010KT 21/15 A3015 RMK A01 T02090148  RH  068%=      5-min Rain = 0
KAM1 041055Z 33010KT 21/15 A3015 RMK A01 T02100149  RH  068%=      5-min Rain = 0
KAM1 041056Z 34010KT 21/15 A3015 RMK A01 T02100149  RH  068%=      5-min Rain = 0
KAM1 041057Z 34009KT 21/15 A3015 RMK A01 T02090149  RH  068%=      5-min Rain = 0
KAM1 041058Z 34009KT 21/15 A3015 RMK A01 T02090149  RH  069%=      5-min Rain = 0
KAM1 041059Z 34009KT 21/15 A3015 RMK A01 T02080149  RH  069%=      5-min Rain = 0
KAM1 041100Z 34010KT 21/15 A3015 RMK A01 T02080150  RH  069%=      5-min Rain = 0
KAM1 041101Z 34011KT 21/15 A3015 RMK A01 T02070150  RH  070%=      5-min Rain = 0
KAM1 041102Z 34011KT 21/15 A3015 RMK A01 T02070151  RH  070%=      5-min Rain = 0
KAM1 041103Z 35009KT 21/15 A3015 RMK A01 T02070151  RH  070%=      5-min Rain = 0
KAM1 041104Z 34011KT 21/15 A3015 RMK A01 T02070151  RH  071%=      5-min Rain = 0
KAM1 041105Z 34011KT 21/15 A3015 RMK A01 T02060152  RH  071%=      5-min Rain = 0
KAM1 041106Z 35012KT 21/15 A3015 RMK A01 T02060152  RH  071%=      5-min Rain = 0
KAM1 041107Z 34011KT 21/15 A3015 RMK A01 T02060152  RH  071%=      5-min Rain = 0
KAM1 041108Z 34011KT 21/15 A3015 RMK A01 T02060152  RH  071%=      5-min Rain = 0
KAM1 041109Z 34011KT 21/15 A3015 RMK A01 T02060152  RH  071%=      5-min Rain = 0
KAM1 041110Z 34010KT 21/15 A3015 RMK A01 T02060152  RH  071%=      5-min Rain = 0
KAM1 041111Z 34012KT 21/15 A3015 RMK A01 T02070152  RH  071%=      5-min Rain = 0
KAM1 041112Z 34011KT 21/15 A3016 RMK A01 T02060152  RH  071%=      5-min Rain = 0
KAM1 041113Z 35011KT 21/15 A3016 RMK A01 T02060152  RH  071%=      5-min Rain = 0
KAM1 041114Z 34010KT 21/15 A3016 RMK A01 T02060153  RH  071%=      5-min Rain = 0
KAM1 041115Z 35010KT 21/15 A3015 RMK A01 T02060153  RH  071%=      5-min Rain = 0
KAM1 041116Z 35010KT 21/15 A3016 RMK A01 T02060153  RH  072%=      5-min Rain = 0
KAM1 041117Z 35010KT 21/15 A3016 RMK A01 T02050152  RH  072%=      5-min Rain = 0
KAM1 041118Z 35010KT 21/15 A3016 RMK A01 T02050153  RH  072%=      5-min Rain = 0
KAM1 041119Z 35009KT 20/15 A3016 RMK A01 T02040153  RH  072%=      5-min Rain = 0
KAM1 041120Z 35010KT 20/15 A3016 RMK A01 T02040153  RH  072%=      5-min Rain = 0
KAM1 041121Z 35012KT 20/15 A3016 RMK A01 T02040153  RH  072%=      5-min Rain = 0
KAM1 041122Z 35010KT 20/15 A3016 RMK A01 T02040153  RH  072%=      5-min Rain = 0
KAM1 041123Z 35011KT 20/15 A3016 RMK A01 T02040153  RH  072%=      5-min Rain = 0
KAM1 041124Z 35010KT 20/15 A3016 RMK A01 T02030152  RH  072%=      5-min Rain = 0
KAM1 041125Z 35010KT 20/15 A3015 RMK A01 T02040153  RH  072%=      5-min Rain = 0
KAM1 041126Z 35011KT 20/15 A3015 RMK A01 T02030152  RH  072%=      5-min Rain = 0
KAM1 041127Z 35010KT 20/15 A3015 RMK A01 T02040152  RH  072%=      5-min Rain = 0
KAM1 041128Z 35010KT 20/15 A3015 RMK A01 T02040152  RH  072%=      5-min Rain = 0
KAM1 041129Z 35010KT 20/15 A3016 RMK A01 T02030152  RH  072%=      5-min Rain = 0
KAM1 041130Z 35011KT 20/15 A3015 RMK A01 T02030152  RH  072%=      5-min Rain = 0
KAM1 041131Z 35010KT 20/15 A3016 RMK A01 T02030152  RH  072%=      5-min Rain = 0
KAM1 041132Z 35011KT 20/15 A3015 RMK A01 T02030152  RH  072%=      5-min Rain = 0
KAM1 041133Z 35011KT 20/15 A3015 RMK A01 T02030152  RH  072%=      5-min Rain = 0
KAM1 041134Z 35011KT 20/15 A3015 RMK A01 T02030152  RH  072%=      5-min Rain = 0
KAM1 041135Z 35010KT 20/15 A3015 RMK A01 T02030152  RH  072%=      5-min Rain = 0
KAM1 041136Z 35011KT 20/15 A3015 RMK A01 T02030152  RH  072%=      5-min Rain = 0
KAM1 041137Z 35011KT 20/15 A3015 RMK A01 T02030152  RH  072%=      5-min Rain = 0
KAM1 041138Z 35009KT 20/15 A3015 RMK A01 T02030152  RH  072%=      5-min Rain = 0
KAM1 041139Z 35011KT 20/15 A3015 RMK A01 T02030152  RH  073%=      5-min Rain = 0
KAM1 041140Z 35009KT 20/15 A3015 RMK A01 T02030152  RH  073%=      5-min Rain = 0
KAM1 041141Z 34010KT 20/15 A3015 RMK A01 T02020152  RH  073%=      5-min Rain = 0
KAM1 041142Z 34010KT 20/15 A3015 RMK A01 T02020152  RH  073%=      5-min Rain = 0
KAM1 041143Z 34010KT 20/15 A3015 RMK A01 T02020152  RH  073%=      5-min Rain = 0
KAM1 041144Z 34010KT 20/15 A3015 RMK A01 T02020152  RH  073%=      5-min Rain = 0
KAM1 041145Z 34009KT 20/15 A3015 RMK A01 T02020152  RH  073%=      5-min Rain = 0
KAM1 041146Z 33009KT 20/15 A3015 RMK A01 T02020152  RH  073%=      5-min Rain = 0
KAM1 041147Z 33008KT 20/15 A3015 RMK A01 T02020152  RH  073%=      5-min Rain = 0
KAM1 041148Z 33008KT 20/15 A3015 RMK A01 T02020152  RH  073%=      5-min Rain = 0
KAM1 041149Z 32008KT 20/15 A3015 RMK A01 T02020151  RH  073%=      5-min Rain = 0
KAM1 041150Z 32008KT 20/15 A3015 RMK A01 T02010151  RH  073%=      5-min Rain = 0
KAM1 041151Z 32008KT 20/15 A3015 RMK A01 T02010151  RH  073%=      5-min Rain = 0
KAM1 041152Z 32009KT 20/15 A3015 RMK A01 T02000152  RH  074%=      5-min Rain = 0
KAM1 041153Z 32009KT 20/15 A3015 RMK A01 T02000152  RH  074%=      5-min Rain = 0
KAM1 041154Z 32010KT 20/15 A3016 RMK A01 T02000153  RH  074%=      5-min Rain = 0
KAM1 041155Z 32009KT 20/15 A3016 RMK A01 T02000153  RH  074%=      5-min Rain = 0
KAM1 041156Z 33009KT 20/15 A3016 RMK A01 T02000153  RH  074%=      5-min Rain = 0
KAM1 041157Z 33008KT 20/15 A3016 RMK A01 T02000153  RH  074%=      5-min Rain = 0
KAM1 041158Z 33010KT 20/15 A3015 RMK A01 T02000153  RH  074%=      5-min Rain = 0
KAM1 041159Z 33008KT 20/15 A3015 RMK A01 T02000153  RH  074%=      5-min Rain = 0
KAM1 041200Z 33009KT 20/15 A3015 RMK A01 T02000153  RH  074%=      5-min Rain = 0
KAM1 041201Z 33009KT 20/15 A3015 RMK A01 T02010154  RH  074%=      5-min Rain = 0
KAM1 041202Z 33009KT 20/15 A3015 RMK A01 T02010154  RH  074%=      5-min Rain = 0
KAM1 041203Z 33007KT 20/15 A3015 RMK A01 T02020154  RH  074%=      5-min Rain = 0
KAM1 041204Z 33007KT 20/15 A3015 RMK A01 T02010154  RH  074%=      5-min Rain = 0
KAM1 041205Z 34007KT 20/15 A3015 RMK A01 T02010154  RH  074%=      5-min Rain = 0
KAM1 041206Z 34007KT 20/15 A3015 RMK A01 T02020154  RH  074%=      5-min Rain = 0
KAM1 041207Z 34007KT 20/15 A3015 RMK A01 T02010154  RH  074%=      5-min Rain = 0
KAM1 041208Z 34008KT 20/15 A3015 RMK A01 T02010154  RH  074%=      5-min Rain = 0
KAM1 041209Z 34009KT 20/15 A3015 RMK A01 T02010154  RH  074%=      5-min Rain = 0
KAM1 041210Z 34008KT 20/15 A3015 RMK A01 T02020154  RH  074%=      5-min Rain = 0
KAM1 041211Z 34008KT 20/15 A3015 RMK A01 T02020154  RH  074%=      5-min Rain = 0
KAM1 041212Z 34007KT 20/15 A3014 RMK A01 T02020154  RH  074%=      5-min Rain = 0
KAM1 041213Z 35007KT 20/15 A3014 RMK A01 T02020154  RH  074%=      5-min Rain = 0
KAM1 041214Z 34007KT 20/15 A3014 RMK A01 T02020154  RH  074%=      5-min Rain = 0
KAM1 041215Z 34008KT 20/15 A3014 RMK A01 T02020154  RH  074%=      5-min Rain = 0
KAM1 041216Z 34008KT 20/15 A3014 RMK A01 T02020154  RH  074%=      5-min Rain = 0
KAM1 041217Z 34007KT 20/15 A3014 RMK A01 T02020154  RH  074%=      5-min Rain = 0
KAM1 041218Z 34007KT 20/15 A3014 RMK A01 T02020154  RH  074%=      5-min Rain = 0
KAM1 041219Z 35006KT 20/15 A3014 RMK A01 T02010154  RH  074%=      5-min Rain = 0
KAM1 041220Z 34007KT 20/15 A3014 RMK A01 T02010154  RH  074%=      5-min Rain = 0
KAM1 041221Z 35006KT 20/15 A3014 RMK A01 T02010154  RH  074%=      5-min Rain = 0
KAM1 041222Z 35007KT 20/15 A3014 RMK A01 T02010154  RH  074%=      5-min Rain = 0
KAM1 041223Z 35007KT 20/15 A3014 RMK A01 T02010154  RH  074%=      5-min Rain = 0
KAM1 041224Z 35006KT 20/15 A3014 RMK A01 T02020154  RH  074%=      5-min Rain = 0
KAM1 041225Z 35007KT 20/15 A3014 RMK A01 T02010154  RH  074%=      5-min Rain = 0
KAM1 041226Z 35007KT 20/15 A3014 RMK A01 T02020154  RH  074%=      5-min Rain = 0
KAM1 041227Z 35006KT 20/15 A3014 RMK A01 T02020154  RH  074%=      5-min Rain = 0
KAM1 041228Z 35006KT 20/15 A3014 RMK A01 T02020154  RH  074%=      5-min Rain = 0
KAM1 041229Z 35007KT 20/15 A3014 RMK A01 T02020154  RH  074%=      5-min Rain = 0
KAM1 041230Z 36005KT 20/15 A3014 RMK A01 T02020154  RH  074%=      5-min Rain = 0
KAM1 041231Z 36007KT 20/15 A3014 RMK A01 T02020154  RH  074%=      5-min Rain = 0
KAM1 041232Z 36007KT 20/15 A3014 RMK A01 T02030154  RH  073%=      5-min Rain = 0
KAM1 041233Z 35006KT 20/15 A3014 RMK A01 T02030154  RH  073%=      5-min Rain = 0
KAM1 041234Z 35007KT 20/15 A3014 RMK A01 T02030154  RH  073%=      5-min Rain = 0
KAM1 041235Z 35006KT 20/15 A3014 RMK A01 T02030154  RH  073%=      5-min Rain = 0
KAM1 041236Z 35006KT 20/15 A3014 RMK A01 T02040154  RH  073%=      5-min Rain = 0
KAM1 041237Z 35006KT 20/15 A3014 RMK A01 T02040154  RH  073%=      5-min Rain = 0
KAM1 041238Z 35006KT 20/15 A3014 RMK A01 T02040154  RH  073%=      5-min Rain = 0
KAM1 041239Z 36006KT 20/15 A3014 RMK A01 T02040154  RH  073%=      5-min Rain = 0
KAM1 041240Z 00006KT 21/16 A3014 RMK A01 T02050155  RH  073%=      5-min Rain = 0
KAM1 041241Z 01007KT 20/15 A3014 RMK A01 T02040154  RH  073%=      5-min Rain = 0
KAM1 041242Z 01005KT 21/15 A3014 RMK A01 T02050154  RH  073%=      5-min Rain = 0
KAM1 041243Z 01005KT 21/15 A3014 RMK A01 T02050154  RH  073%=      5-min Rain = 0
KAM1 041244Z 00007KT 21/16 A3014 RMK A01 T02050155  RH  073%=      5-min Rain = 0
KAM1 041245Z 01008KT 20/15 A3014 RMK A01 T02040154  RH  073%=      5-min Rain = 0
KAM1 041246Z 01007KT 21/15 A3013 RMK A01 T02050154  RH  073%=      5-min Rain = 0
KAM1 041247Z 01008KT 21/16 A3013 RMK A01 T02050155  RH  073%=      5-min Rain = 0
KAM1 041248Z 00008KT 21/16 A3013 RMK A01 T02050155  RH  073%=      5-min Rain = 0
KAM1 041249Z 01007KT 21/15 A3013 RMK A01 T02050154  RH  073%=      5-min Rain = 0
KAM1 041250Z 01006KT 21/16 A3013 RMK A01 T02050155  RH  073%=      5-min Rain = 0
KAM1 041251Z 00006KT 21/15 A3013 RMK A01 T02050154  RH  073%=      5-min Rain = 0
KAM1 041252Z 01006KT 21/15 A3013 RMK A01 T02050154  RH  073%=      5-min Rain = 0
KAM1 041253Z 01007KT 21/15 A3013 RMK A01 T02050154  RH  072%=      5-min Rain = 0
KAM1 041254Z 00006KT 21/15 A3013 RMK A01 T02060154  RH  072%=      5-min Rain = 0
KAM1 041255Z 00006KT 21/15 A3013 RMK A01 T02060154  RH  072%=      5-min Rain = 0
KAM1 041256Z 01005KT 21/15 A3013 RMK A01 T02060154  RH  072%=      5-min Rain = 0
KAM1 041257Z 01004KT 21/16 A3013 RMK A01 T02070155  RH  072%=      5-min Rain = 0
KAM1 041258Z 00004KT 21/16 A3013 RMK A01 T02070155  RH  072%=      5-min Rain = 0
KAM1 041259Z 00004KT 21/15 A3013 RMK A01 T02080154  RH  071%=      5-min Rain = 0
KAM1 041300Z 00005KT 21/15 A3013 RMK A01 T02080154  RH  071%=      5-min Rain = 0
KAM1 041301Z 01005KT 21/15 A3013 RMK A01 T02080154  RH  071%=      5-min Rain = 0
KAM1 041302Z 36005KT 21/15 A3013 RMK A01 T02090154  RH  071%=      5-min Rain = 0
KAM1 041303Z 00005KT 21/15 A3013 RMK A01 T02090154  RH  071%=      5-min Rain = 0
KAM1 041304Z 35005KT 21/15 A3013 RMK A01 T02100154  RH  070%=      5-min Rain = 0
KAM1 041305Z 36006KT 21/16 A3013 RMK A01 T02110155  RH  070%=      5-min Rain = 0
KAM1 041306Z 36005KT 21/15 A3013 RMK A01 T02110154  RH  070%=      5-min Rain = 0
KAM1 041307Z 35005KT 21/15 A3013 RMK A01 T02110154  RH  070%=      5-min Rain = 0
KAM1 041308Z 35005KT 21/16 A3013 RMK A01 T02120155  RH  070%=      5-min Rain = 0
KAM1 041309Z 35005KT 21/15 A3013 RMK A01 T02130154  RH  069%=      5-min Rain = 0
KAM1 041310Z 36006KT 22/16 A3013 RMK A01 T02150155  RH  069%=      5-min Rain = 0
KAM1 041311Z 35006KT 22/15 A3013 RMK A01 T02160154  RH  068%=      5-min Rain = 0
KAM1 041312Z 35005KT 22/15 A3013 RMK A01 T02180154  RH  067%=      5-min Rain = 0
KAM1 041313Z 35006KT 22/15 A3013 RMK A01 T02190154  RH  067%=      5-min Rain = 0
KAM1 041314Z 00006KT 22/15 A3013 RMK A01 T02190153  RH  066%=      5-min Rain = 0
KAM1 041315Z 00006KT 22/15 A3013 RMK A01 T02200153  RH  066%=      5-min Rain = 0
KAM1 041316Z 01006KT 22/15 A3013 RMK A01 T02190153  RH  066%=      5-min Rain = 0
KAM1 041317Z 00006KT 22/15 A3013 RMK A01 T02190153  RH  066%=      5-min Rain = 0
KAM1 041318Z 35006KT 22/15 A3013 RMK A01 T02190153  RH  066%=      5-min Rain = 0
KAM1 041319Z 01006KT 22/15 A3013 RMK A01 T02190152  RH  066%=      5-min Rain = 0
KAM1 041320Z 00006KT 22/15 A3013 RMK A01 T02200152  RH  065%=      5-min Rain = 0
KAM1 041321Z 01006KT 22/15 A3013 RMK A01 T02190153  RH  066%=      5-min Rain = 0
KAM1 041322Z 01007KT 22/15 A3013 RMK A01 T02200152  RH  065%=      5-min Rain = 0
KAM1 041323Z 01006KT 22/15 A3013 RMK A01 T02190151  RH  065%=      5-min Rain = 0
KAM1 041324Z 00004KT 22/15 A3013 RMK A01 T02190152  RH  066%=      5-min Rain = 0
KAM1 041325Z 00005KT 22/15 A3012 RMK A01 T02200152  RH  066%=      5-min Rain = 0
KAM1 041326Z 00006KT 22/15 A3012 RMK A01 T02200152  RH  065%=      5-min Rain = 0
KAM1 041327Z 01004KT 22/15 A3012 RMK A01 T02200152  RH  065%=      5-min Rain = 0
KAM1 041328Z 00004KT 22/15 A3012 RMK A01 T02210152  RH  065%=      5-min Rain = 0
KAM1 041329Z 01004KT 22/15 A3012 RMK A01 T02210151  RH  064%=      5-min Rain = 0
KAM1 041330Z 00004KT 22/15 A3012 RMK A01 T02210151  RH  064%=      5-min Rain = 0
KAM1 041331Z 35005KT 22/15 A3012 RMK A01 T02210151  RH  064%=      5-min Rain = 0
KAM1 041332Z 00005KT 22/15 A3012 RMK A01 T02220150  RH  064%=      5-min Rain = 0
KAM1 041333Z 00005KT 22/15 A3012 RMK A01 T02220151  RH  064%=      5-min Rain = 0
KAM1 041334Z 36004KT 22/15 A3012 RMK A01 T02210151  RH  064%=      5-min Rain = 0
KAM1 041335Z 00004KT 22/15 A3012 RMK A01 T02220151  RH  064%=      5-min Rain = 0
KAM1 041336Z 35004KT 22/15 A3012 RMK A01 T02230151  RH  064%=      5-min Rain = 0
KAM1 041337Z 35006KT 22/15 A3012 RMK A01 T02230151  RH  063%=      5-min Rain = 0
KAM1 041338Z 36005KT 22/15 A3012 RMK A01 T02240151  RH  063%=      5-min Rain = 0
KAM1 041339Z 00005KT 22/15 A3013 RMK A01 T02230151  RH  063%=      5-min Rain = 0
KAM1 041340Z 00005KT 22/15 A3013 RMK A01 T02240151  RH  063%=      5-min Rain = 0
KAM1 041341Z 00005KT 22/15 A3013 RMK A01 T02240151  RH  063%=      5-min Rain = 0
KAM1 041342Z 36005KT 22/15 A3013 RMK A01 T02240150  RH  063%=      5-min Rain = 0
KAM1 041343Z 00005KT 22/15 A3013 RMK A01 T02240150  RH  063%=      5-min Rain = 0
KAM1 041344Z 35005KT 22/15 A3013 RMK A01 T02240150  RH  063%=      5-min Rain = 0
KAM1 041345Z 35005KT 22/15 A3013 RMK A01 T02240151  RH  063%=      5-min Rain = 0
KAM1 041346Z 35005KT 22/15 A3013 RMK A01 T02240150  RH  063%=      5-min Rain = 0
KAM1 041347Z 00005KT 22/15 A3013 RMK A01 T02240150  RH  063%=      5-min Rain = 0
KAM1 041348Z 01004KT 22/15 A3012 RMK A01 T02240150  RH  063%=      5-min Rain = 0
KAM1 041349Z 01004KT 23/15 A3012 RMK A01 T02250150  RH  063%=      5-min Rain = 0
KAM1 041350Z 02004KT 23/15 A3012 RMK A01 T02250150  RH  062%=      5-min Rain = 0
KAM1 041351Z 03004KT 23/15 A3012 RMK A01 T02260150  RH  062%=      5-min Rain = 0
KAM1 041352Z 02003KT 23/15 A3012 RMK A01 T02260149  RH  062%=      5-min Rain = 0
KAM1 041353Z 04004KT 23/15 A3012 RMK A01 T02270149  RH  062%=      5-min Rain = 0
KAM1 041354Z 03005KT 23/15 A3012 RMK A01 T02280149  RH  061%=      5-min Rain = 0
KAM1 041355Z 03004KT 23/15 A3012 RMK A01 T02280148  RH  061%=      5-min Rain = 0
KAM1 041356Z 03004KT 23/15 A3012 RMK A01 T02290148  RH  060%=      5-min Rain = 0
KAM1 041357Z 03003KT 23/15 A3012 RMK A01 T02300148  RH  060%=      5-min Rain = 0
KAM1 041358Z 03004KT 23/15 A3012 RMK A01 T02310148  RH  060%=      5-min Rain = 0
KAM1 041359Z 03004KT 23/15 A3012 RMK A01 T02310148  RH  060%=      5-min Rain = 0
KAM1 041400Z 02004KT 23/15 A3012 RMK A01 T02310146  RH  059%=      5-min Rain = 0
KAM1 041401Z 01003KT 23/15 A3012 RMK A01 T02310147  RH  059%=      5-min Rain = 0
KAM1 041402Z 03004KT 23/15 A3012 RMK A01 T02310147  RH  059%=      5-min Rain = 0
KAM1 041403Z 05003KT 23/15 A3012 RMK A01 T02320146  RH  059%=      5-min Rain = 0
KAM1 041404Z 04003KT 23/15 A3012 RMK A01 T02330148  RH  059%=      5-min Rain = 0
KAM1 041405Z 04004KT 24/15 A3012 RMK A01 T02350146  RH  057%=      5-min Rain = 0
KAM1 041406Z 03003KT 24/15 A3012 RMK A01 T02360145  RH  057%=      5-min Rain = 0
KAM1 041407Z 03003KT 24/14 A3012 RMK A01 T02360144  RH  056%=      5-min Rain = 0
KAM1 041408Z 03004KT 24/14 A3012 RMK A01 T02360144  RH  056%=      5-min Rain = 0
KAM1 041409Z 03003KT 24/14 A3012 RMK A01 T02370143  RH  056%=      5-min Rain = 0
KAM1 041410Z 04003KT 24/14 A3012 RMK A01 T02370143  RH  055%=      5-min Rain = 0
KAM1 041411Z 04003KT 24/14 A3012 RMK A01 T02370141  RH  055%=      5-min Rain = 0
KAM1 041412Z 02003KT 24/14 A3012 RMK A01 T02370143  RH  056%=      5-min Rain = 0
KAM1 041413Z 02003KT 24/14 A3012 RMK A01 T02380143  RH  055%=      5-min Rain = 0
KAM1 041414Z 01003KT 24/14 A3012 RMK A01 T02390142  RH  054%=      5-min Rain = 0
KAM1 041415Z 00003KT 24/14 A3012 RMK A01 T02400142  RH  054%=      5-min Rain = 0
KAM1 041416Z 02004KT 24/14 A3012 RMK A01 T02410141  RH  054%=      5-min Rain = 0
KAM1 041417Z 02003KT 24/14 A3012 RMK A01 T02400141  RH  054%=      5-min Rain = 0
KAM1 041418Z 03003KT 24/14 A3012 RMK A01 T02400142  RH  054%=      5-min Rain = 0
KAM1 041419Z 02003KT 24/14 A3012 RMK A01 T02410140  RH  053%=      5-min Rain = 0
KAM1 041420Z 01002KT 24/14 A3012 RMK A01 T02420141  RH  053%=      5-min Rain = 0
KAM1 041421Z 01002KT 25/14 A3012 RMK A01 T02450140  RH  052%=      5-min Rain = 0
KAM1 041422Z 03002KT 25/14 A3012 RMK A01 T02460137  RH  051%=      5-min Rain = 0
KAM1 041423Z 04003KT 25/14 A3012 RMK A01 T02470139  RH  051%=      5-min Rain = 0
KAM1 041424Z 05003KT 25/14 A3012 RMK A01 T02480139  RH  050%=      5-min Rain = 0
KAM1 041425Z 05003KT 25/14 A3012 RMK A01 T02490137  RH  049%=      5-min Rain = 0
KAM1 041426Z 07003KT 25/14 A3012 RMK A01 T02500138  RH  050%=      5-min Rain = 0
KAM1 041427Z 06003KT 25/14 A3012 RMK A01 T02500138  RH  050%=      5-min Rain = 0
KAM1 041428Z 05002KT 25/14 A3012 RMK A01 T02490137  RH  050%=      5-min Rain = 0
KAM1 041429Z 03001KT 25/14 A3012 RMK A01 T02490136  RH  049%=      5-min Rain = 0
KAM1 041430Z 03001KT 25/14 A3012 RMK A01 T02500137  RH  049%=      5-min Rain = 0
KAM1 041431Z 02001KT 25/14 A3012 RMK A01 T02510137  RH  049%=      5-min Rain = 0
KAM1 041432Z 00000KT 25/14 A3012 RMK A01 T02510135  RH  049%=      5-min Rain = 0
KAM1 041433Z 00000KT 25/14 A3012 RMK A01 T02510136  RH  049%=      5-min Rain = 0
KAM1 041434Z 34000KT 25/14 A3012 RMK A01 T02520139  RH  049%=      5-min Rain = 0
KAM1 041435Z 36001KT 25/14 A3012 RMK A01 T02530140  RH  049%=      5-min Rain = 0
KAM1 041436Z 00000KT 25/14 A3012 RMK A01 T02530141  RH  050%=      5-min Rain = 0
KAM1 041437Z 12000KT 25/14 A3012 RMK A01 T02530141  RH  050%=      5-min Rain = 0
KAM1 041438Z 08001KT 26/14 A3012 RMK A01 T02550139  RH  049%=      5-min Rain = 0
KAM1 041439Z 09002KT 26/14 A3012 RMK A01 T02560138  RH  048%=      5-min Rain = 0
KAM1 041440Z 12001KT 26/14 A3012 RMK A01 T02580139  RH  048%=      5-min Rain = 0
KAM1 041441Z 09002KT 26/14 A3012 RMK A01 T02600139  RH  047%=      5-min Rain = 0
KAM1 041442Z 11002KT 26/14 A3012 RMK A01 T02600137  RH  047%=      5-min Rain = 0
KAM1 041443Z 12001KT 26/14 A3012 RMK A01 T02600137  RH  047%=      5-min Rain = 0
KAM1 041444Z 12002KT 26/14 A3012 RMK A01 T02600136  RH  046%=      5-min Rain = 0
KAM1 041445Z 12000KT 26/14 A3012 RMK A01 T02610137  RH  046%=      5-min Rain = 0
KAM1 041446Z 10002KT 26/14 A3012 RMK A01 T02620138  RH  046%=      5-min Rain = 0
KAM1 041447Z 12003KT 26/14 A3012 RMK A01 T02640139  RH  046%=      5-min Rain = 0
KAM1 041448Z 11002KT 26/14 A3012 RMK A01 T02640139  RH  046%=      5-min Rain = 0
KAM1 041449Z 12003KT 26/14 A3012 RMK A01 T02640139  RH  046%=      5-min Rain = 0
KAM1 041450Z 14002KT 26/14 A3012 RMK A01 T02640138  RH  046%=      5-min Rain = 0
KAM1 041451Z 14001KT 26/14 A3012 RMK A01 T02640138  RH  046%=      5-min Rain = 0
KAM1 041452Z 15003KT 26/14 A3012 RMK A01 T02640139  RH  046%=      5-min Rain = 0
KAM1 041453Z 11003KT 26/14 A3012 RMK A01 T02640139  RH  046%=      5-min Rain = 0
KAM1 041454Z 12004KT 26/14 A3012 RMK A01 T02640140  RH  046%=      5-min Rain = 0
KAM1 041455Z 11005KT 27/14 A3012 RMK A01 T02660140  RH  046%=      5-min Rain = 0
KAM1 041456Z 12004KT 27/14 A3012 RMK A01 T02670139  RH  045%=      5-min Rain = 0
KAM1 041457Z 11004KT 27/14 A3012 RMK A01 T02680140  RH  045%=      5-min Rain = 0
KAM1 041458Z 12004KT 27/14 A3012 RMK A01 T02690140  RH  045%=      5-min Rain = 0
KAM1 041459Z 09003KT 27/14 A3012 RMK A01 T02690140  RH  045%=      5-min Rain = 0
KAM1 041500Z 10003KT 27/14 A3012 RMK A01 T02680140  RH  045%=      5-min Rain = 0
KAM1 041501Z 13003KT 27/14 A3012 RMK A01 T02670140  RH  046%=      5-min Rain = 0
KAM1 041502Z 13005KT 27/14 A3012 RMK A01 T02670139  RH  045%=      5-min Rain = 0
KAM1 041503Z 13004KT 27/14 A3012 RMK A01 T02670140  RH  046%=      5-min Rain = 0
KAM1 041504Z 12003KT 27/14 A3012 RMK A01 T02670140  RH  046%=      5-min Rain = 0
KAM1 041505Z 13005KT 27/14 A3012 RMK A01 T02670141  RH  046%=      5-min Rain = 0
KAM1 041506Z 14003KT 27/14 A3012 RMK A01 T02690140  RH  045%=      5-min Rain = 0
KAM1 041507Z 11001KT 27/14 A3012 RMK A01 T02680140  RH  045%=      5-min Rain = 0
KAM1 041508Z 17002KT 27/14 A3012 RMK A01 T02680141  RH  045%=      5-min Rain = 0
KAM1 041509Z 13002KT 27/14 A3012 RMK A01 T02690141  RH  045%=      5-min Rain = 0
KAM1 041510Z 15002KT 27/14 A3012 RMK A01 T02710141  RH  045%=      5-min Rain = 0
KAM1 041511Z 14003KT 27/14 A3012 RMK A01 T02710141  RH  045%=      5-min Rain = 0
KAM1 041512Z 12002KT 27/14 A3012 RMK A01 T02720142  RH  045%=      5-min Rain = 0
KAM1 041513Z 14003KT 27/14 A3012 RMK A01 T02730141  RH  044%=      5-min Rain = 0
KAM1 041514Z 07001KT 27/14 A3012 RMK A01 T02730140  RH  044%=      5-min Rain = 0
KAM1 041515Z 36001KT 27/14 A3012 RMK A01 T02720141  RH  045%=      5-min Rain = 0
KAM1 041516Z 30000KT 27/14 A3012 RMK A01 T02740142  RH  044%=      5-min Rain = 0
KAM1 041517Z 26001KT 28/14 A3012 RMK A01 T02770142  RH  044%=      5-min Rain = 0
KAM1 041518Z 25002KT 28/14 A3012 RMK A01 T02780141  RH  043%=      5-min Rain = 0
KAM1 041519Z 23001KT 28/14 A3012 RMK A01 T02790143  RH  043%=      5-min Rain = 0
KAM1 041520Z 32003KT 28/14 A3012 RMK A01 T02810142  RH  043%=      5-min Rain = 0
KAM1 041521Z 34005KT 28/14 A3012 RMK A01 T02810144  RH  043%=      5-min Rain = 0
KAM1 041522Z 35005KT 28/15 A3012 RMK A01 T02820145  RH  043%=      5-min Rain = 0
KAM1 041523Z 35005KT 28/14 A3012 RMK A01 T02830144  RH  043%=      5-min Rain = 0
KAM1 041524Z 32004KT 28/14 A3012 RMK A01 T02800144  RH  043%=      5-min Rain = 0
KAM1 041525Z 33005KT 28/14 A3012 RMK A01 T02790144  RH  044%=      5-min Rain = 0
KAM1 041526Z 33006KT 28/15 A3012 RMK A01 T02780146  RH  044%=      5-min Rain = 0
KAM1 041527Z 35007KT 28/15 A3012 RMK A01 T02780146  RH  044%=      5-min Rain = 0
KAM1 041528Z 35006KT 28/15 A3012 RMK A01 T02780145  RH  044%=      5-min Rain = 0
KAM1 041529Z 35006KT 28/14 A3012 RMK A01 T02760144  RH  044%=      5-min Rain = 0
KAM1 041530Z 36004KT 28/15 A3012 RMK A01 T02750145  RH  045%=      5-min Rain = 0
KAM1 041531Z 33005KT 28/15 A3012 RMK A01 T02750145  RH  045%=      5-min Rain = 0
KAM1 041532Z 33005KT 28/15 A3012 RMK A01 T02750145  RH  045%=      5-min Rain = 0
KAM1 041533Z 34006KT 28/15 A3012 RMK A01 T02750145  RH  045%=      5-min Rain = 0
KAM1 041534Z 34006KT 28/15 A3012 RMK A01 T02750145  RH  045%=      5-min Rain = 0
KAM1 041535Z 33005KT 27/14 A3012 RMK A01 T02740144  RH  045%=      5-min Rain = 0
KAM1 041536Z 33005KT 28/15 A3012 RMK A01 T02760145  RH  045%=      5-min Rain = 0
KAM1 041537Z 32004KT 28/14 A3013 RMK A01 T02770144  RH  044%=      5-min Rain = 0
KAM1 041538Z 33005KT 28/14 A3013 RMK A01 T02770144  RH  044%=      5-min Rain = 0
KAM1 041539Z 34006KT 28/15 A3013 RMK A01 T02780145  RH  044%=      5-min Rain = 0
KAM1 041540Z 33005KT 28/15 A3013 RMK A01 T02810145  RH  043%=      5-min Rain = 0
KAM1 041541Z 32005KT 28/15 A3013 RMK A01 T02810145  RH  043%=      5-min Rain = 0
KAM1 041542Z 33007KT 28/15 A3013 RMK A01 T02820145  RH  043%=      5-min Rain = 0
KAM1 041543Z 34007KT 29/15 A3013 RMK A01 T02850145  RH  043%=      5-min Rain = 0
KAM1 041544Z 33005KT 29/14 A3013 RMK A01 T02860144  RH  042%=      5-min Rain = 0
KAM1 041545Z 35004KT 28/14 A3013 RMK A01 T02840143  RH  042%=      5-min Rain = 0
KAM1 041546Z 02004KT 28/14 A3013 RMK A01 T02830144  RH  043%=      5-min Rain = 0
KAM1 041547Z 01005KT 28/14 A3013 RMK A01 T02830144  RH  043%=      5-min Rain = 0
KAM1 041548Z 02005KT 28/14 A3013 RMK A01 T02830144  RH  043%=      5-min Rain = 0
KAM1 041549Z 04003KT 28/14 A3013 RMK A01 T02800142  RH  043%=      5-min Rain = 0
KAM1 041550Z 01003KT 28/14 A3013 RMK A01 T02780143  RH  044%=      5-min Rain = 0
KAM1 041551Z 02005KT 28/14 A3013 RMK A01 T02790144  RH  043%=      5-min Rain = 0
KAM1 041552Z 00006KT 28/15 A3013 RMK A01 T02830145  RH  043%=      5-min Rain = 0
KAM1 041553Z 01005KT 29/15 A3013 RMK A01 T02860145  RH  042%=      5-min Rain = 0
KAM1 041554Z 34006KT 29/15 A3013 RMK A01 T02870146  RH  042%=      5-min Rain = 0
KAM1 041555Z 36007KT 28/15 A3013 RMK A01 T02840148  RH  043%=      5-min Rain = 0
KAM1 041556Z 36005KT 29/15 A3013 RMK A01 T02850148  RH  043%=      5-min Rain = 0
KAM1 041557Z 36006KT 29/15 A3013 RMK A01 T02870148  RH  043%=      5-min Rain = 0
KAM1 041558Z 35005KT 29/15 A3013 RMK A01 T02850148  RH  043%=      5-min Rain = 0
KAM1 041559Z 33005KT 28/15 A3013 RMK A01 T02840147  RH  043%=      5-min Rain = 0
KAM1 041600Z 34004KT 28/15 A3013 RMK A01 T02820147  RH  044%=      5-min Rain = 0
KAM1 041601Z 01004KT 28/15 A3013 RMK A01 T02820146  RH  044%=      5-min Rain = 0
KAM1 041602Z 01006KT 28/15 A3013 RMK A01 T02810146  RH  044%=      5-min Rain = 0
KAM1 041603Z 01006KT 28/15 A3013 RMK A01 T02830146  RH  043%=      5-min Rain = 0
KAM1 041604Z 04003KT 28/15 A3013 RMK A01 T02830146  RH  043%=      5-min Rain = 0
KAM1 041605Z 05006KT 28/15 A3013 RMK A01 T02840147  RH  043%=      5-min Rain = 0
KAM1 041606Z 05006KT 29/14 A3013 RMK A01 T02860144  RH  042%=      5-min Rain = 0
KAM1 041607Z 07004KT 28/14 A3013 RMK A01 T02830143  RH  042%=      5-min Rain = 0
KAM1 041608Z 02002KT 28/14 A3013 RMK A01 T02800144  RH  043%=      5-min Rain = 0
KAM1 041609Z 01005KT 28/14 A3013 RMK A01 T02820144  RH  043%=      5-min Rain = 0
KAM1 041610Z 03005KT 28/14 A3013 RMK A01 T02830142  RH  042%=      5-min Rain = 0
KAM1 041611Z 03006KT 28/14 A3013 RMK A01 T02820143  RH  042%=      5-min Rain = 0
KAM1 041612Z 02003KT 28/14 A3013 RMK A01 T02820143  RH  043%=      5-min Rain = 0
KAM1 041613Z 34004KT 28/15 A3013 RMK A01 T02810145  RH  043%=      5-min Rain = 0
KAM1 041614Z 33006KT 28/15 A3013 RMK A01 T02830145  RH  043%=      5-min Rain = 0
KAM1 041615Z 33006KT 28/15 A3013 RMK A01 T02830145  RH  043%=      5-min Rain = 0
KAM1 041616Z 32005KT 28/15 A3013 RMK A01 T02830145  RH  043%=      5-min Rain = 0
KAM1 041617Z 33003KT 28/14 A3013 RMK A01 T02810144  RH  043%=      5-min Rain = 0
KAM1 041618Z 35005KT 28/15 A3013 RMK A01 T02810145  RH  043%=      5-min Rain = 0
KAM1 041619Z 33005KT 28/15 A3013 RMK A01 T02820145  RH  043%=      5-min Rain = 0
KAM1 041620Z 33005KT 28/15 A3013 RMK A01 T02830145  RH  043%=      5-min Rain = 0
KAM1 041621Z 33004KT 28/15 A3013 RMK A01 T02840146  RH  043%=      5-min Rain = 0
KAM1 041622Z 33005KT 29/15 A3013 RMK A01 T02850145  RH  043%=      5-min Rain = 0
KAM1 041623Z 34006KT 29/15 A3013 RMK A01 T02850145  RH  043%=      5-min Rain = 0
KAM1 041624Z 34005KT 28/15 A3013 RMK A01 T02840145  RH  043%=      5-min Rain = 0
KAM1 041625Z 33004KT 28/15 A3013 RMK A01 T02820145  RH  043%=      5-min Rain = 0
KAM1 041626Z 01004KT 28/15 A3013 RMK A01 T02820146  RH  043%=      5-min Rain = 0
KAM1 041627Z 00006KT 28/15 A3013 RMK A01 T02830146  RH  043%=      5-min Rain = 0
KAM1 041628Z 03005KT 29/15 A3013 RMK A01 T02860149  RH  043%=      5-min Rain = 0
KAM1 041629Z 35006KT 29/15 A3013 RMK A01 T02900149  RH  042%=      5-min Rain = 0
KAM1 041630Z 00005KT 29/15 A3013 RMK A01 T02900148  RH  042%=      5-min Rain = 0
KAM1 041631Z 00005KT 29/15 A3013 RMK A01 T02890148  RH  042%=      5-min Rain = 0
KAM1 041632Z 00005KT 29/15 A3014 RMK A01 T02880148  RH  042%=      5-min Rain = 0
KAM1 041633Z 01005KT 29/15 A3014 RMK A01 T02880147  RH  042%=      5-min Rain = 0
KAM1 041634Z 07005G16KT 29/15 A3014 RMK A01 T02880149  RH  043%=      5-min Rain = 0
KAM1 041635Z 05007G14KT 29/15 A3013 RMK A01 T02890151  RH  043%=      5-min Rain = 0
KAM1 041636Z 06010KT 29/15 A3014 RMK A01 T02920152  RH  043%=      5-min Rain = 0
KAM1 041637Z 04007KT 29/15 A3014 RMK A01 T02920150  RH  042%=      5-min Rain = 0
KAM1 041638Z 05008KT 29/15 A3014 RMK A01 T02910150  RH  042%=      5-min Rain = 0
KAM1 041639Z 04008KT 29/15 A3014 RMK A01 T02920149  RH  042%=      5-min Rain = 0
KAM1 041640Z 04008KT 29/15 A3014 RMK A01 T02940149  RH  041%=      5-min Rain = 0
KAM1 041641Z 05008KT 30/15 A3014 RMK A01 T02950149  RH  041%=      5-min Rain = 0
KAM1 041642Z 05008KT 29/15 A3014 RMK A01 T02940148  RH  041%=      5-min Rain = 0
KAM1 041643Z 06008KT 29/15 A3014 RMK A01 T02930150  RH  042%=      5-min Rain = 0
KAM1 041644Z 06011KT 29/15 A3014 RMK A01 T02920149  RH  042%=      5-min Rain = 0
KAM1 041645Z 06010KT 29/15 A3014 RMK A01 T02930149  RH  042%=      5-min Rain = 0
KAM1 041646Z 05011KT 29/15 A3014 RMK A01 T02930150  RH  042%=      5-min Rain = 0
KAM1 041647Z 03010KT 29/15 A3014 RMK A01 T02940150  RH  042%=      5-min Rain = 0
KAM1 041648Z 04011KT 30/15 A3014 RMK A01 T02950151  RH  042%=      5-min Rain = 0
KAM1 041649Z 03010KT 30/15 A3014 RMK A01 T02960151  RH  041%=      5-min Rain = 0
KAM1 041650Z 05008KT 30/15 A3014 RMK A01 T02950151  RH  042%=      5-min Rain = 0
KAM1 041651Z 05010KT 30/15 A3014 RMK A01 T02960151  RH  041%=      5-min Rain = 0
KAM1 041652Z 05010KT 30/15 A3014 RMK A01 T02970151  RH  041%=      5-min Rain = 0
KAM1 041653Z 07008KT 30/15 A3014 RMK A01 T02970150  RH  041%=      5-min Rain = 0
KAM1 041654Z 07008KT 30/15 A3014 RMK A01 T02960150  RH  041%=      5-min Rain = 0
KAM1 041655Z 06012KT 30/15 A3014 RMK A01 T02970150  RH  041%=      5-min Rain = 0
KAM1 041656Z 05012KT 30/15 A3014 RMK A01 T02960149  RH  041%=      5-min Rain = 0
KAM1 041657Z 03011KT 30/15 A3014 RMK A01 T02980150  RH  041%=      5-min Rain = 0
KAM1 041658Z 04009KT 30/15 A3014 RMK A01 T02980149  RH  040%=      5-min Rain = 0
KAM1 041659Z 03010KT 30/15 A3014 RMK A01 T02960150  RH  041%=      5-min Rain = 0
KAM1 041700Z 04010KT 30/15 A3014 RMK A01 T02970148  RH  040%=      5-min Rain = 0
KAM1 041701Z 03010KT 30/15 A3014 RMK A01 T02960149  RH  041%=      5-min Rain = 0
KAM1 041702Z 04007KT 29/15 A3014 RMK A01 T02940148  RH  041%=      5-min Rain = 0
KAM1 041703Z 05007KT 29/15 A3014 RMK A01 T02930149  RH  041%=      5-min Rain = 0
KAM1 041704Z 04010KT 29/15 A3014 RMK A01 T02930148  RH  041%=      5-min Rain = 0
KAM1 041705Z 05008KT 29/15 A3014 RMK A01 T02930147  RH  041%=      5-min Rain = 0
KAM1 041706Z 06007G14KT 29/15 A3014 RMK A01 T02920149  RH  042%=      5-min Rain = 0
KAM1 041707Z 04011KT 29/15 A3014 RMK A01 T02940149  RH  041%=      5-min Rain = 0
KAM1 041708Z 04007G13KT 30/15 A3014 RMK A01 T02950147  RH  041%=      5-min Rain = 0
KAM1 041709Z 04008KT 29/15 A3014 RMK A01 T02920148  RH  041%=      5-min Rain = 0
KAM1 041710Z 05007KT 29/15 A3014 RMK A01 T02930149  RH  042%=      5-min Rain = 0
KAM1 041711Z 03009KT 30/15 A3014 RMK A01 T02950148  RH  041%=      5-min Rain = 0
KAM1 041712Z 03008KT 30/15 A3014 RMK A01 T02960147  RH  040%=      5-min Rain = 0
KAM1 041713Z 02006KT 29/15 A3014 RMK A01 T02920146  RH  041%=      5-min Rain = 0
KAM1 041714Z 06006KT 29/15 A3014 RMK A01 T02890147  RH  042%=      5-min Rain = 0
KAM1 041715Z 04003KT 29/15 A3014 RMK A01 T02900146  RH  041%=      5-min Rain = 0
KAM1 041716Z 06002KT 29/15 A3014 RMK A01 T02900146  RH  042%=      5-min Rain = 0
KAM1 041717Z 06007KT 29/15 A3014 RMK A01 T02900148  RH  042%=      5-min Rain = 0
KAM1 041718Z 05007KT 29/15 A3014 RMK A01 T02940148  RH  041%=      5-min Rain = 0
KAM1 041719Z 03007G12KT 30/15 A3014 RMK A01 T02970148  RH  040%=      5-min Rain = 0
KAM1 041720Z 04009KT 30/15 A3014 RMK A01 T03010149  RH  040%=      5-min Rain = 0
KAM1 041721Z 03010KT 30/15 A3014 RMK A01 T03000149  RH  040%=      5-min Rain = 0
KAM1 041722Z 03009KT 30/15 A3014 RMK A01 T02970147  RH  040%=      5-min Rain = 0
KAM1 041723Z 00008KT 30/15 A3014 RMK A01 T02950148  RH  041%=      5-min Rain = 0
KAM1 041724Z 01009KT 29/15 A3014 RMK A01 T02930148  RH  041%=      5-min Rain = 0
KAM1 041725Z 01007KT 29/15 A3014 RMK A01 T02930148  RH  041%=      5-min Rain = 0
KAM1 041726Z 34007KT 29/15 A3014 RMK A01 T02940147  RH  041%=      5-min Rain = 0
KAM1 041727Z 02005KT 29/15 A3014 RMK A01 T02940147  RH  041%=      5-min Rain = 0
KAM1 041728Z 05007KT 29/15 A3014 RMK A01 T02930147  RH  041%=      5-min Rain = 0
KAM1 041729Z 06007KT 29/15 A3014 RMK A01 T02940146  RH  040%=      5-min Rain = 0
KAM1 041730Z 09005KT 29/15 A3014 RMK A01 T02940147  RH  041%=      5-min Rain = 0
KAM1 041731Z 10004KT 29/15 A3014 RMK A01 T02940146  RH  041%=      5-min Rain = 0
KAM1 041732Z 09005KT 29/15 A3014 RMK A01 T02940148  RH  041%=      5-min Rain = 0
KAM1 041733Z 04005KT 30/15 A3014 RMK A01 T02970147  RH  040%=      5-min Rain = 0
KAM1 041734Z 04007KT 30/15 A3014 RMK A01 T02970147  RH  040%=      5-min Rain = 0
KAM1 041735Z 03010KT 30/15 A3014 RMK A01 T03020149  RH  040%=      5-min Rain = 0
KAM1 041736Z 02009KT 30/15 A3014 RMK A01 T03020147  RH  039%=      5-min Rain = 0
KAM1 041737Z 03006KT 30/15 A3014 RMK A01 T02980146  RH  040%=      5-min Rain = 0
KAM1 041738Z 35008KT 30/15 A3014 RMK A01 T02950147  RH  040%=      5-min Rain = 0
KAM1 041739Z 34008KT 30/15 A3014 RMK A01 T02980148  RH  040%=      5-min Rain = 0
KAM1 041740Z 01007KT 30/15 A3014 RMK A01 T03000148  RH  040%=      5-min Rain = 0
KAM1 041741Z 05010KT 30/15 A3014 RMK A01 T03020149  RH  039%=      5-min Rain = 0
KAM1 041742Z 06009KT 30/15 A3014 RMK A01 T03030148  RH  039%=      5-min Rain = 0
KAM1 041743Z 05008KT 30/15 A3014 RMK A01 T03010147  RH  039%=      5-min Rain = 0
KAM1 041744Z 05005KT 30/15 A3014 RMK A01 T03000146  RH  039%=      5-min Rain = 0
KAM1 041745Z 03008KT 30/15 A3014 RMK A01 T02980147  RH  040%=      5-min Rain = 0
KAM1 041746Z 05005KT 30/15 A3014 RMK A01 T02980145  RH  039%=      5-min Rain = 0
KAM1 041747Z 05004KT 30/15 A3014 RMK A01 T02960146  RH  040%=      5-min Rain = 0
KAM1 041748Z 02002KT 30/15 A3014 RMK A01 T02960147  RH  040%=      5-min Rain = 0
KAM1 041749Z 01005KT 30/15 A3014 RMK A01 T02960147  RH  040%=      5-min Rain = 0
KAM1 041750Z 00005KT 30/15 A3014 RMK A01 T02990149  RH  040%=      5-min Rain = 0
KAM1 041751Z 02007G12KT 30/15 A3014 RMK A01 T03010149  RH  040%=      5-min Rain = 0
KAM1 041752Z 03009KT 30/15 A3014 RMK A01 T03030148  RH  039%=      5-min Rain = 0
KAM1 041753Z 01007KT 30/15 A3014 RMK A01 T03010147  RH  039%=      5-min Rain = 0
KAM1 041754Z 01006KT 30/15 A3014 RMK A01 T02990148  RH  040%=      5-min Rain = 0
KAM1 041755Z 03004KT 30/15 A3014 RMK A01 T02990147  RH  040%=      5-min Rain = 0
KAM1 041756Z 03004KT 30/15 A3014 RMK A01 T02990148  RH  040%=      5-min Rain = 0
KAM1 041757Z 05003KT 30/15 A3014 RMK A01 T02970148  RH  040%=      5-min Rain = 0
KAM1 041758Z 03008G13KT 30/15 A3014 RMK A01 T02960150  RH  041%=      5-min Rain = 0
KAM1 041759Z 04010KT 30/16 A3014 RMK A01 T03020155  RH  041%=      5-min Rain = 0
KAM1 041800Z 02007KT 31/16 A3014 RMK A01 T03050155  RH  040%=      5-min Rain = 0
KAM1 041801Z 01006KT 30/16 A3014 RMK A01 T03030155  RH  041%=      5-min Rain = 0
KAM1 041802Z 02006KT 30/16 A3014 RMK A01 T03010155  RH  041%=      5-min Rain = 0
KAM1 041803Z 05006G12KT 30/16 A3014 RMK A01 T03010155  RH  041%=      5-min Rain = 0
KAM1 041804Z 05012KT 30/16 A3014 RMK A01 T03020155  RH  041%=      5-min Rain = 0
KAM1 041805Z 04009KT 30/15 A3014 RMK A01 T03020154  RH  041%=      5-min Rain = 0
KAM1 041806Z 03007KT 30/16 A3014 RMK A01 T03040155  RH  041%=      5-min Rain = 0
KAM1 041807Z 02005KT 31/16 A3014 RMK A01 T03050155  RH  040%=      5-min Rain = 0
KAM1 041808Z 06006KT 30/15 A3014 RMK A01 T03030154  RH  041%=      5-min Rain = 0
KAM1 041809Z 08009KT 30/15 A3014 RMK A01 T03020154  RH  041%=      5-min Rain = 0
KAM1 041810Z 08006KT 30/15 A3014 RMK A01 T03020154  RH  041%=      5-min Rain = 0
KAM1 041811Z 09007KT 30/15 A3014 RMK A01 T03040154  RH  040%=      5-min Rain = 0
KAM1 041812Z 06010KT 30/15 A3014 RMK A01 T03040154  RH  040%=      5-min Rain = 0
KAM1 041813Z 05008KT 30/15 A3014 RMK A01 T03040153  RH  040%=      5-min Rain = 0
KAM1 041814Z 06007KT 30/15 A3014 RMK A01 T03030153  RH  040%=      5-min Rain = 0
KAM1 041815Z 06010KT 30/15 A3014 RMK A01 T03020153  RH  040%=      5-min Rain = 0
KAM1 041816Z 05012KT 30/15 A3014 RMK A01 T03030152  RH  040%=      5-min Rain = 0
KAM1 041817Z 06012KT 31/15 A3014 RMK A01 T03050153  RH  040%=      5-min Rain = 0
KAM1 041818Z 05009KT 31/15 A3014 RMK A01 T03080153  RH  039%=      5-min Rain = 0
KAM1 041819Z 05009KT 31/15 A3014 RMK A01 T03070152  RH  039%=      5-min Rain = 0
KAM1 041820Z 04008KT 30/15 A3014 RMK A01 T03040152  RH  040%=      5-min Rain = 0
KAM1 041821Z 06006KT 30/15 A3014 RMK A01 T03030152  RH  040%=      5-min Rain = 0
KAM1 041822Z 08007KT 30/15 A3014 RMK A01 T03030152  RH  040%=      5-min Rain = 0
KAM1 041823Z 09005KT 31/15 A3014 RMK A01 T03050151  RH  039%=      5-min Rain = 0
KAM1 041824Z 06005KT 31/15 A3014 RMK A01 T03070152  RH  039%=      5-min Rain = 0
KAM1 041825Z 06006KT 31/15 A3014 RMK A01 T03060152  RH  039%=      5-min Rain = 0
KAM1 041826Z 06006KT 31/15 A3013 RMK A01 T03050152  RH  040%=      5-min Rain = 0
KAM1 041827Z 05009KT 31/15 A3014 RMK A01 T03050153  RH  040%=      5-min Rain = 0
KAM1 041828Z 06007KT 31/15 A3014 RMK A01 T03060152  RH  039%=      5-min Rain = 0
KAM1 041829Z 02007KT 31/15 A3014 RMK A01 T03070153  RH  039%=      5-min Rain = 0
KAM1 041830Z 02009KT 31/15 A3014 RMK A01 T03070152  RH  039%=      5-min Rain = 0
KAM1 041831Z 02007KT 30/15 A3013 RMK A01 T03040151  RH  040%=      5-min Rain = 0
KAM1 041832Z 02007KT 30/15 A3013 RMK A01 T03030152  RH  040%=      5-min Rain = 0
KAM1 041833Z 01007KT 31/15 A3013 RMK A01 T03060151  RH  039%=      5-min Rain = 0
KAM1 041834Z 04010KT 31/15 A3013 RMK A01 T03060152  RH  039%=      5-min Rain = 0
KAM1 041835Z 04006KT 31/15 A3013 RMK A01 T03080151  RH  039%=      5-min Rain = 0
KAM1 041836Z 06005KT 31/15 A3013 RMK A01 T03070151  RH  039%=      5-min Rain = 0
KAM1 041837Z 09008KT 31/15 A3013 RMK A01 T03080152  RH  039%=      5-min Rain = 0
KAM1 041838Z 10005KT 31/15 A3013 RMK A01 T03080150  RH  038%=      5-min Rain = 0
KAM1 041839Z 14003G9KT 30/15 A3013 RMK A01 T03040150  RH  039%=      5-min Rain = 0
KAM1 041840Z 06012KT 30/15 A3013 RMK A01 T03030151  RH  040%=      5-min Rain = 0
KAM1 041841Z 07009KT 31/15 A3013 RMK A01 T03060151  RH  039%=      5-min Rain = 0
KAM1 041842Z 10006KT 31/15 A3013 RMK A01 T03080151  RH  039%=      5-min Rain = 0
KAM1 041843Z 11006KT 31/15 A3013 RMK A01 T03080151  RH  039%=      5-min Rain = 0
KAM1 041844Z 11007KT 31/15 A3013 RMK A01 T03070151  RH  039%=      5-min Rain = 0
KAM1 041845Z 11006KT 31/15 A3013 RMK A01 T03050150  RH  039%=      5-min Rain = 0
KAM1 041846Z 09008KT 31/15 A3013 RMK A01 T03060151  RH  039%=      5-min Rain = 0
KAM1 041847Z 10007KT 31/15 A3013 RMK A01 T03090150  RH  038%=      5-min Rain = 0
KAM1 041848Z 08008KT 31/15 A3013 RMK A01 T03070150  RH  039%=      5-min Rain = 0
KAM1 041849Z 09004KT 31/15 A3013 RMK A01 T03070150  RH  039%=      5-min Rain = 0
KAM1 041850Z 06006KT 31/15 A3012 RMK A01 T03070151  RH  039%=      5-min Rain = 0
KAM1 041851Z 03008KT 31/15 A3012 RMK A01 T03100150  RH  038%=      5-min Rain = 0
KAM1 041852Z 04010KT 31/15 A3013 RMK A01 T03110150  RH  038%=      5-min Rain = 0
KAM1 041853Z 04006KT 31/15 A3012 RMK A01 T03090149  RH  038%=      5-min Rain = 0
KAM1 041854Z 07005KT 31/15 A3012 RMK A01 T03080148  RH  038%=      5-min Rain = 0
KAM1 041855Z 05006KT 31/15 A3013 RMK A01 T03090147  RH  037%=      5-min Rain = 0
KAM1 041856Z 06002KT 31/15 A3012 RMK A01 T03080145  RH  037%=      5-min Rain = 0
KAM1 041857Z 11002KT 31/15 A3012 RMK A01 T03060145  RH  037%=      5-min Rain = 0
KAM1 041858Z 14001KT 30/15 A3012 RMK A01 T03040146  RH  038%=      5-min Rain = 0
KAM1 041859Z 31001KT 31/15 A3012 RMK A01 T03050148  RH  039%=      5-min Rain = 0
KAM1 041900Z 00002KT 31/15 A3012 RMK A01 T03080149  RH  038%=      5-min Rain = 0
KAM1 041901Z 03002KT 31/15 A3012 RMK A01 T03110150  RH  038%=      5-min Rain = 0
KAM1 041902Z 06007KT 31/15 A3012 RMK A01 T03120150  RH  037%=      5-min Rain = 0
KAM1 041903Z 06008KT 31/15 A3012 RMK A01 T03120149  RH  037%=      5-min Rain = 0
KAM1 041904Z 05007KT 31/15 A3012 RMK A01 T03110148  RH  037%=      5-min Rain = 0
KAM1 041905Z 05008KT 31/15 A3012 RMK A01 T03100147  RH  037%=      5-min Rain = 0
KAM1 041906Z 07008KT 31/15 A3012 RMK A01 T03110147  RH  037%=      5-min Rain = 0
KAM1 041907Z 08007KT 31/15 A3012 RMK A01 T03090146  RH  037%=      5-min Rain = 0
KAM1 041908Z 05007KT 31/15 A3012 RMK A01 T03090146  RH  037%=      5-min Rain = 0
KAM1 041909Z 04004KT 31/15 A3012 RMK A01 T03100146  RH  037%=      5-min Rain = 0
KAM1 041910Z 09004KT 31/15 A3012 RMK A01 T03090148  RH  038%=      5-min Rain = 0
KAM1 041911Z 05003KT 31/15 A3012 RMK A01 T03080149  RH  038%=      5-min Rain = 0
KAM1 041912Z 05001KT 31/15 A3012 RMK A01 T03090148  RH  038%=      5-min Rain = 0
KAM1 041913Z 02001KT 31/15 A3012 RMK A01 T03090147  RH  037%=      5-min Rain = 0
KAM1 041914Z 35002KT 31/15 A3012 RMK A01 T03090147  RH  037%=      5-min Rain = 0
KAM1 041915Z 36003G8KT 31/15 A3012 RMK A01 T03100148  RH  038%=      5-min Rain = 0
KAM1 041916Z 02005KT 31/15 A3012 RMK A01 T03120149  RH  037%=      5-min Rain = 0
KAM1 041917Z 04006KT 31/15 A3012 RMK A01 T03130150  RH  037%=      5-min Rain = 0
KAM1 041918Z 03007KT 31/15 A3012 RMK A01 T03120151  RH  038%=      5-min Rain = 0
KAM1 041919Z 01003KT 31/15 A3011 RMK A01 T03100150  RH  038%=      5-min Rain = 0
KAM1 041920Z 04008KT 31/15 A3011 RMK A01 T03090151  RH  038%=      5-min Rain = 0
KAM1 041921Z 04008KT 31/15 A3011 RMK A01 T03090150  RH  038%=      5-min Rain = 0
KAM1 041922Z 03007KT 31/15 A3011 RMK A01 T03100151  RH  038%=      5-min Rain = 0
KAM1 041923Z 08007KT 31/15 A3011 RMK A01 T03130152  RH  038%=      5-min Rain = 0
KAM1 041924Z 07003KT 32/15 A3011 RMK A01 T03150150  RH  037%=      5-min Rain = 0
KAM1 041925Z 02007KT 32/15 A3011 RMK A01 T03150152  RH  037%=      5-min Rain = 0
KAM1 041926Z 36006KT 32/15 A3011 RMK A01 T03150151  RH  037%=      5-min Rain = 0
KAM1 041927Z 02005G10KT 31/15 A3011 RMK A01 T03130151  RH  038%=      5-min Rain = 0
KAM1 041928Z 02011KT 32/15 A3011 RMK A01 T03150153  RH  038%=      5-min Rain = 0
KAM1 041929Z 02009KT 32/15 A3011 RMK A01 T03200154  RH  037%=      5-min Rain = 0
KAM1 041930Z 03008KT 32/15 A3011 RMK A01 T03210153  RH  036%=      5-min Rain = 0
KAM1 041931Z 04006KT 32/15 A3011 RMK A01 T03190151  RH  036%=      5-min Rain = 0
KAM1 041932Z 04005KT 32/15 A3011 RMK A01 T03150150  RH  037%=      5-min Rain = 0
KAM1 041933Z 07005KT 31/15 A3011 RMK A01 T03140150  RH  037%=      5-min Rain = 0
KAM1 041934Z 08008KT 32/15 A3011 RMK A01 T03150150  RH  037%=      5-min Rain = 0
KAM1 041935Z 09009KT 32/15 A3011 RMK A01 T03180150  RH  036%=      5-min Rain = 0
KAM1 041936Z 09005KT 32/15 A3011 RMK A01 T03200150  RH  036%=      5-min Rain = 0
KAM1 041937Z 08008KT 32/15 A3011 RMK A01 T03210150  RH  035%=      5-min Rain = 0
KAM1 041938Z 06006KT 32/15 A3011 RMK A01 T03220150  RH  035%=      5-min Rain = 0
KAM1 041939Z 07009KT 32/15 A3011 RMK A01 T03230149  RH  035%=      5-min Rain = 0
KAM1 041940Z 08007KT 32/15 A301 RMK A01 T03230148  RH  035%=      5-min Rain = 0
KAM1 041941Z 08005KT 32/15 A301 RMK A01 T03220148  RH  035%=      5-min Rain = 0
KAM1 041942Z 10005KT 32/15 A301 RMK A01 T03200146  RH  035%=      5-min Rain = 0
KAM1 041943Z 07005KT 32/15 A301 RMK A01 T03170145  RH  035%=      5-min Rain = 0
KAM1 041944Z 06006KT 32/15 A301 RMK A01 T03160146  RH  036%=      5-min Rain = 0
KAM1 041945Z 06005KT 32/15 A301 RMK A01 T03160145  RH  036%=      5-min Rain = 0
KAM1 041946Z 06007KT 31/15 A301 RMK A01 T03140147  RH  036%=      5-min Rain = 0
KAM1 041947Z 08008KT 32/15 A301 RMK A01 T03170149  RH  036%=      5-min Rain = 0
KAM1 041948Z 05004KT 32/15 A301 RMK A01 T03190148  RH  036%=      5-min Rain = 0
KAM1 041949Z 04003KT 32/15 A301 RMK A01 T03180148  RH  036%=      5-min Rain = 0
KAM1 041950Z 06003KT 32/15 A301 RMK A01 T03170148  RH  036%=      5-min Rain = 0
KAM1 041951Z 08004KT 32/15 A301 RMK A01 T03180150  RH  036%=      5-min Rain = 0
KAM1 041952Z 06006KT 32/15 A301 RMK A01 T03220149  RH  035%=      5-min Rain = 0
KAM1 041953Z 06007KT 32/15 A301 RMK A01 T03230149  RH  035%=      5-min Rain = 0
KAM1 041954Z 09006KT 32/15 A301 RMK A01 T03220149  RH  035%=      5-min Rain = 0
KAM1 041955Z 14003KT 32/15 A301 RMK A01 T03210150  RH  036%=      5-min Rain = 0
KAM1 041956Z 18002KT 32/15 A3009 RMK A01 T03190151  RH  036%=      5-min Rain = 0
KAM1 041957Z 00000KT 32/15 A3009 RMK A01 T03190148  RH  036%=      5-min Rain = 0
KAM1 041958Z 08001KT 32/15 A3009 RMK A01 T03180147  RH  036%=      5-min Rain = 0
KAM1 041959Z 08006KT 32/15 A3009 RMK A01 T03210152  RH  036%=      5-min Rain = 0
KAM1 042000Z 07004KT 33/16 A3009 RMK A01 T03260155  RH  036%=      5-min Rain = 0
KAM1 042001Z 06006KT 33/16 A3009 RMK A01 T03280155  RH  035%=      5-min Rain = 0
KAM1 042002Z 02008KT 33/16 A3009 RMK A01 T03290155  RH  035%=      5-min Rain = 0
KAM1 042003Z 03009KT 33/15 A3009 RMK A01 T03290154  RH  035%=      5-min Rain = 0
KAM1 042004Z 04007KT 33/15 A3009 RMK A01 T03250152  RH  035%=      5-min Rain = 0
KAM1 042005Z 04008KT 33/15 A3009 RMK A01 T03250151  RH  035%=      5-min Rain = 0
KAM1 042006Z 06007G13KT 33/15 A3009 RMK A01 T03250151  RH  035%=      5-min Rain = 0
KAM1 042007Z 10009KT 32/15 A3009 RMK A01 T03240149  RH  035%=      5-min Rain = 0
KAM1 042008Z 11007KT 32/15 A3008 RMK A01 T03230149  RH  035%=      5-min Rain = 0
KAM1 042009Z 10007KT 32/15 A3008 RMK A01 T03220149  RH  035%=      5-min Rain = 0
KAM1 042010Z 09005KT 32/15 A3008 RMK A01 T03180147  RH  036%=      5-min Rain = 0
KAM1 042011Z 09003KT 31/15 A3008 RMK A01 T03140146  RH  036%=      5-min Rain = 0
KAM1 042012Z 06004KT 31/15 A3008 RMK A01 T03120146  RH  036%=      5-min Rain = 0
KAM1 042013Z 04005KT 31/15 A3008 RMK A01 T03110146  RH  037%=      5-min Rain = 0
KAM1 042014Z 04005KT 31/15 A3008 RMK A01 T03120147  RH  037%=      5-min Rain = 0
KAM1 042015Z 04005KT 31/15 A3008 RMK A01 T03130147  RH  036%=      5-min Rain = 0
KAM1 042016Z 04006KT 31/15 A3008 RMK A01 T03130146  RH  036%=      5-min Rain = 0
KAM1 042017Z 05006KT 31/15 A3008 RMK A01 T03140147  RH  036%=      5-min Rain = 0
KAM1 042018Z 01002KT 32/15 A3008 RMK A01 T03170147  RH  036%=      5-min Rain = 0
KAM1 042019Z 10006KT 32/15 A3008 RMK A01 T03200150  RH  036%=      5-min Rain = 0
KAM1 042020Z 10008KT 32/15 A3008 RMK A01 T03240148  RH  035%=      5-min Rain = 0
KAM1 042021Z 09009KT 33/15 A3008 RMK A01 T03270148  RH  034%=      5-min Rain = 0
KAM1 042022Z 07009KT 33/15 A3008 RMK A01 T03270147  RH  034%=      5-min Rain = 0
KAM1 042023Z 05006KT 33/15 A3008 RMK A01 T03260145  RH  034%=      5-min Rain = 0
KAM1 042024Z 07004KT 32/15 A3008 RMK A01 T03240146  RH  034%=      5-min Rain = 0
KAM1 042025Z 10006KT 33/15 A3008 RMK A01 T03300148  RH  033%=      5-min Rain = 0
KAM1 042026Z 11009KT 33/15 A3008 RMK A01 T03340147  RH  033%=      5-min Rain = 0
KAM1 042027Z 12007KT 34/15 A3008 RMK A01 T03350147  RH  032%=      5-min Rain = 0
KAM1 042028Z 16005KT 33/15 A3008 RMK A01 T03340145  RH  032%=      5-min Rain = 0
KAM1 042029Z 18005KT 33/14 A3008 RMK A01 T03290144  RH  033%=      5-min Rain = 0
KAM1 042030Z 19003KT 33/14 A3008 RMK A01 T03250144  RH  034%=      5-min Rain = 0
KAM1 042031Z 11004KT 32/15 A3008 RMK A01 T03230145  RH  034%=      5-min Rain = 0
KAM1 042032Z 10007KT 32/14 A3008 RMK A01 T03240144  RH  034%=      5-min Rain = 0
KAM1 042033Z 10008KT 32/14 A3008 RMK A01 T03230142  RH  034%=      5-min Rain = 0
KAM1 042034Z 10005KT 32/14 A3008 RMK A01 T03200142  RH  034%=      5-min Rain = 0
KAM1 042035Z 08003KT 32/14 A3008 RMK A01 T03180142  RH  034%=      5-min Rain = 0
KAM1 042036Z 07005KT 32/14 A3008 RMK A01 T03170142  RH  035%=      5-min Rain = 0
KAM1 042037Z 06001KT 32/14 A3008 RMK A01 T03180142  RH  034%=      5-min Rain = 0
KAM1 042038Z 33000KT 32/14 A3008 RMK A01 T03190142  RH  034%=      5-min Rain = 0
KAM1 042039Z 07002KT 32/14 A3007 RMK A01 T03210144  RH  034%=      5-min Rain = 0
KAM1 042040Z 04003KT 33/15 A3007 RMK A01 T03260145  RH  034%=      5-min Rain = 0
KAM1 042041Z 03003KT 33/14 A3007 RMK A01 T03290144  RH  033%=      5-min Rain = 0
KAM1 042042Z 02003KT 33/14 A3007 RMK A01 T03290143  RH  033%=      5-min Rain = 0
KAM1 042043Z 02004KT 33/14 A3007 RMK A01 T03290143  RH  032%=      5-min Rain = 0
KAM1 042044Z 03003KT 33/14 A3007 RMK A01 T03280143  RH  033%=      5-min Rain = 0
KAM1 042045Z 35003KT 33/14 A3007 RMK A01 T03280143  RH  033%=      5-min Rain = 0
KAM1 042046Z 01001KT 33/14 A3007 RMK A01 T03280143  RH  033%=      5-min Rain = 0
KAM1 042047Z 01000KT 33/14 A3007 RMK A01 T03270144  RH  033%=      5-min Rain = 0
KAM1 042048Z 34001KT 33/15 A3007 RMK A01 T03310145  RH  033%=      5-min Rain = 0
KAM1 042049Z 01000KT 34/15 A3007 RMK A01 T03350145  RH  032%=      5-min Rain = 0
KAM1 042050Z 09003KT 34/15 A3007 RMK A01 T03380147  RH  032%=      5-min Rain = 0
KAM1 042051Z 14005KT 34/15 A3006 RMK A01 T03420146  RH  031%=      5-min Rain = 0
KAM1 042052Z 11005KT 34/15 A3006 RMK A01 T03410145  RH  031%=      5-min Rain = 0
KAM1 042053Z 15006KT 34/15 A3006 RMK A01 T03380145  RH  031%=      5-min Rain = 0
KAM1 042054Z 14007G12KT 34/15 A3006 RMK A01 T03370145  RH  031%=      5-min Rain = 0
KAM1 042055Z 14008KT 34/14 A3006 RMK A01 T03370144  RH  031%=      5-min Rain = 0
KAM1 042056Z 12005KT 34/14 A3006 RMK A01 T03360144  RH  032%=      5-min Rain = 0
KAM1 042057Z 10003KT 34/14 A3006 RMK A01 T03360143  RH  031%=      5-min Rain = 0
KAM1 042058Z 13002KT 34/14 A3006 RMK A01 T03350142  RH  031%=      5-min Rain = 0
KAM1 042059Z 12003KT 34/14 A3006 RMK A01 T03350143  RH  031%=      5-min Rain = 0
KAM1 042100Z 16003G9KT 34/14 A3006 RMK A01 T03370143  RH  031%=      5-min Rain = 0
KAM1 042101Z 15007KT 34/14 A3006 RMK A01 T03400144  RH  031%=      5-min Rain = 0
KAM1 042102Z 15010KT 34/14 A3006 RMK A01 T03420144  RH  031%=      5-min Rain = 0
KAM1 042103Z 18008G13KT 34/14 A3006 RMK A01 T03420143  RH  030%=      5-min Rain = 0
KAM1 042104Z 16005KT 34/14 A3006 RMK A01 T03380143  RH  031%=      5-min Rain = 0
KAM1 042105Z 17003KT 34/14 A3006 RMK A01 T03370141  RH  031%=      5-min Rain = 0
KAM1 042106Z 19005KT 34/14 A3006 RMK A01 T03350141  RH  031%=      5-min Rain = 0
KAM1 042107Z 21004KT 33/14 A3006 RMK A01 T03340142  RH  031%=      5-min Rain = 0
KAM1 042108Z 25002KT 33/14 A3005 RMK A01 T03340142  RH  031%=      5-min Rain = 0
KAM1 042109Z 26003KT 34/14 A3005 RMK A01 T03350142  RH  031%=      5-min Rain = 0
KAM1 042110Z 23005KT 34/14 A3005 RMK A01 T03360141  RH  031%=      5-min Rain = 0
KAM1 042111Z 22005KT 34/14 A3005 RMK A01 T03360141  RH  031%=      5-min Rain = 0
KAM1 042112Z 26003KT 34/14 A3005 RMK A01 T03360140  RH  031%=      5-min Rain = 0
KAM1 042113Z 29002KT 34/14 A3005 RMK A01 T03360140  RH  031%=      5-min Rain = 0
KAM1 042114Z 33002KT 34/14 A3005 RMK A01 T03380143  RH  031%=      5-min Rain = 0
KAM1 042115Z 11004KT 34/14 A3005 RMK A01 T03400144  RH  031%=      5-min Rain = 0
KAM1 042116Z 12006KT 34/15 A3005 RMK A01 T03430151  RH  032%=      5-min Rain = 0
KAM1 042117Z 12007KT 34/15 A3005 RMK A01 T03420153  RH  032%=      5-min Rain = 0
KAM1 042118Z 10010G17KT 34/15 A3005 RMK A01 T03420152  RH  032%=      5-min Rain = 0
KAM1 042119Z 12008KT 34/14 A3005 RMK A01 T03440144  RH  030%=      5-min Rain = 0
KAM1 042120Z 12007G12KT 34/15 A3005 RMK A01 T03430151  RH  032%=      5-min Rain = 0
KAM1 042121Z 14007KT 34/15 A3005 RMK A01 T03420152  RH  032%=      5-min Rain = 0
KAM1 042122Z 15003KT 34/15 A3005 RMK A01 T03400150  RH  032%=      5-min Rain = 0
KAM1 042123Z 09002KT 34/15 A3005 RMK A01 T03370150  RH  032%=      5-min Rain = 0
KAM1 042124Z 10003KT 34/15 A3005 RMK A01 T03360150  RH  033%=      5-min Rain = 0
KAM1 042125Z 03002G7KT 33/15 A3005 RMK A01 T03340150  RH  033%=      5-min Rain = 0
KAM1 042126Z 10005KT 33/15 A3005 RMK A01 T03330150  RH  033%=      5-min Rain = 0
KAM1 042127Z 11005KT 33/15 A3005 RMK A01 T03340150  RH  033%=      5-min Rain = 0
KAM1 042128Z 10007G13KT 34/15 A3005 RMK A01 T03350150  RH  033%=      5-min Rain = 0
KAM1 042129Z 11007KT 34/15 A3005 RMK A01 T03350150  RH  033%=      5-min Rain = 0
KAM1 042130Z 10007KT 34/15 A3005 RMK A01 T03390150  RH  032%=      5-min Rain = 0
KAM1 042131Z 09008KT 34/15 A3005 RMK A01 T03400149  RH  032%=      5-min Rain = 0
KAM1 042132Z 08007KT 34/15 A3005 RMK A01 T03410152  RH  032%=      5-min Rain = 0
KAM1 042133Z 08008KT 34/15 A3005 RMK A01 T03410153  RH  032%=      5-min Rain = 0
KAM1 042134Z 06009KT 35/15 A3005 RMK A01 T03460153  RH  032%=      5-min Rain = 0
KAM1 042135Z 07010KT 35/15 A3005 RMK A01 T03460152  RH  031%=      5-min Rain = 0
KAM1 042136Z 08009KT 35/15 A3005 RMK A01 T03450153  RH  032%=      5-min Rain = 0
KAM1 042137Z 09009KT 34/15 A3005 RMK A01 T03410152  RH  032%=      5-min Rain = 0
KAM1 042138Z 11007KT 34/15 A3005 RMK A01 T03370151  RH  033%=      5-min Rain = 0
KAM1 042139Z 10010KT 33/15 A3005 RMK A01 T03330151  RH  034%=      5-min Rain = 0
KAM1 042140Z 11009KT 33/15 A3005 RMK A01 T03300150  RH  034%=      5-min Rain = 0
KAM1 042141Z 11008KT 33/15 A3005 RMK A01 T03260150  RH  035%=      5-min Rain = 0
KAM1 042142Z 12008KT 33/15 A3004 RMK A01 T03250150  RH  035%=      5-min Rain = 0
KAM1 042143Z 15007KT 32/15 A3004 RMK A01 T03240149  RH  035%=      5-min Rain = 0
KAM1 042144Z 16006KT 32/15 A3004 RMK A01 T03230150  RH  035%=      5-min Rain = 0
KAM1 042145Z 14004KT 32/15 A3004 RMK A01 T03220151  RH  035%=      5-min Rain = 0
KAM1 042146Z 09004KT 32/15 A3004 RMK A01 T03220151  RH  036%=      5-min Rain = 0
KAM1 042147Z 07007KT 32/15 A3004 RMK A01 T03220151  RH  036%=      5-min Rain = 0
KAM1 042148Z 08009KT 32/15 A3004 RMK A01 T03230151  RH  035%=      5-min Rain = 0
KAM1 042149Z 08009KT 32/15 A3004 RMK A01 T03230151  RH  036%=      5-min Rain = 0
KAM1 042150Z 09007KT 32/15 A3004 RMK A01 T03220152  RH  036%=      5-min Rain = 0
KAM1 042151Z 09005KT 32/15 A3004 RMK A01 T03230152  RH  036%=      5-min Rain = 0
KAM1 042152Z 06004KT 32/15 A3004 RMK A01 T03240151  RH  035%=      5-min Rain = 0
KAM1 042153Z 07003KT 32/15 A3004 RMK A01 T03240152  RH  035%=      5-min Rain = 0
KAM1 042154Z 11005KT 32/15 A3004 RMK A01 T03240152  RH  036%=      5-min Rain = 0
KAM1 042155Z 12008KT 32/15 A3004 RMK A01 T03240152  RH  035%=      5-min Rain = 0
KAM1 042156Z 12008KT 32/15 A3004 RMK A01 T03240150  RH  035%=      5-min Rain = 0
KAM1 042157Z 13006KT 32/15 A3004 RMK A01 T03240149  RH  035%=      5-min Rain = 0
KAM1 042158Z 14008KT 32/15 A3004 RMK A01 T03220149  RH  035%=      5-min Rain = 0
KAM1 042159Z 15006KT 32/15 A3004 RMK A01 T03220148  RH  035%=      5-min Rain = 0
KAM1 042200Z 15005KT 32/15 A3003 RMK A01 T03230149  RH  035%=      5-min Rain = 0
KAM1 042201Z 14009KT 32/15 A3003 RMK A01 T03240148  RH  035%=      5-min Rain = 0
KAM1 042202Z 15007KT 32/15 A3003 RMK A01 T03240148  RH  035%=      5-min Rain = 0
KAM1 042203Z 15007KT 32/15 A3003 RMK A01 T03230150  RH  035%=      5-min Rain = 0
KAM1 042204Z 15008KT 32/15 A3003 RMK A01 T03230151  RH  035%=      5-min Rain = 0
KAM1 042205Z 15008KT 32/15 A3003 RMK A01 T03240151  RH  035%=      5-min Rain = 0
KAM1 042206Z 13007KT 33/15 A3003 RMK A01 T03250151  RH  035%=      5-min Rain = 0
KAM1 042207Z 11007KT 33/15 A3003 RMK A01 T03250152  RH  035%=      5-min Rain = 0
KAM1 042208Z 10007KT 33/15 A3003 RMK A01 T03280153  RH  035%=      5-min Rain = 0
KAM1 042209Z 09004KT 33/15 A3003 RMK A01 T03300153  RH  034%=      5-min Rain = 0
KAM1 042210Z 08008KT 33/15 A3003 RMK A01 T03300153  RH  035%=      5-min Rain = 0
KAM1 042211Z 07005KT 33/15 A3003 RMK A01 T03290152  RH  034%=      5-min Rain = 0
KAM1 042212Z 11006KT 33/15 A3003 RMK A01 T03270151  RH  035%=      5-min Rain = 0
KAM1 042213Z 09005KT 33/15 A3003 RMK A01 T03250150  RH  035%=      5-min Rain = 0
KAM1 042214Z 07008KT 33/15 A3003 RMK A01 T03250150  RH  035%=      5-min Rain = 0
KAM1 042215Z 07008KT 33/15 A3003 RMK A01 T03280150  RH  034%=      5-min Rain = 0
KAM1 042216Z 04005KT 33/15 A3003 RMK A01 T03300150  RH  034%=      5-min Rain = 0
KAM1 042217Z 03003KT 33/15 A3003 RMK A01 T03290150  RH  034%=      5-min Rain = 0
KAM1 042218Z 10004KT 33/15 A3003 RMK A01 T03290150  RH  034%=      5-min Rain = 0
KAM1 042219Z 07004KT 33/15 A3003 RMK A01 T03280148  RH  034%=      5-min Rain = 0
KAM1 042220Z 08005KT 33/15 A3003 RMK A01 T03260148  RH  034%=      5-min Rain = 0
KAM1 042221Z 09005KT 33/15 A3003 RMK A01 T03260148  RH  034%=      5-min Rain = 0
KAM1 042222Z 10006KT 33/15 A3002 RMK A01 T03260148  RH  034%=      5-min Rain = 0
KAM1 042223Z 10007KT 33/15 A3002 RMK A01 T03270149  RH  034%=      5-min Rain = 0
KAM1 042224Z 09009KT 33/15 A3002 RMK A01 T03300149  RH  034%=      5-min Rain = 0
KAM1 042225Z 08008KT 33/15 A3002 RMK A01 T03330150  RH  033%=      5-min Rain = 0
KAM1 042226Z 10008KT 34/15 A3002 RMK A01 T03360151  RH  033%=      5-min Rain = 0
KAM1 042227Z 10009KT 34/15 A3002 RMK A01 T03390151  RH  033%=      5-min Rain = 0
KAM1 042228Z 11012KT 34/15 A3002 RMK A01 T03390152  RH  033%=      5-min Rain = 0
KAM1 042229Z 11011KT 34/15 A3002 RMK A01 T03390151  RH  032%=      5-min Rain = 0
KAM1 042230Z 09010KT 34/15 A3002 RMK A01 T03350149  RH  033%=      5-min Rain = 0
KAM1 042231Z 09008KT 33/15 A3002 RMK A01 T03310148  RH  033%=      5-min Rain = 0
KAM1 042232Z 11008KT 33/15 A3002 RMK A01 T03270148  RH  034%=      5-min Rain = 0
KAM1 042233Z 10007KT 32/15 A3002 RMK A01 T03240148  RH  034%=      5-min Rain = 0
KAM1 042234Z 09006KT 32/15 A3002 RMK A01 T03230151  RH  035%=      5-min Rain = 0
KAM1 042235Z 10006KT 32/15 A3002 RMK A01 T03230153  RH  036%=      5-min Rain = 0
KAM1 042236Z 12010KT 32/15 A3002 RMK A01 T03220153  RH  036%=      5-min Rain = 0
KAM1 042237Z 13011KT 32/15 A3002 RMK A01 T03220153  RH  036%=      5-min Rain = 0
KAM1 042238Z 13013KT 32/15 A3002 RMK A01 T03230152  RH  036%=      5-min Rain = 0
KAM1 042239Z 11009G14KT 32/15 A3002 RMK A01 T03220151  RH  036%=      5-min Rain = 0
KAM1 042240Z 11008KT 32/15 A3002 RMK A01 T03210152  RH  036%=      5-min Rain = 0
KAM1 042241Z 11010KT 32/15 A3002 RMK A01 T03200153  RH  036%=      5-min Rain = 0
KAM1 042242Z 10010KT 32/15 A3002 RMK A01 T03200153  RH  036%=      5-min Rain = 0
KAM1 042243Z 09012KT 32/15 A3002 RMK A01 T03200152  RH  036%=      5-min Rain = 0
KAM1 042244Z 09010KT 32/15 A3002 RMK A01 T03210152  RH  036%=      5-min Rain = 0
KAM1 042245Z 08008KT 32/15 A3002 RMK A01 T03200150  RH  036%=      5-min Rain = 0
KAM1 042246Z 07005KT 32/15 A3002 RMK A01 T03200148  RH  035%=      5-min Rain = 0
KAM1 042247Z 10004KT 32/15 A3002 RMK A01 T03200149  RH  036%=      5-min Rain = 0
KAM1 042248Z 09006KT 32/15 A3002 RMK A01 T03200151  RH  036%=      5-min Rain = 0
KAM1 042249Z 09011KT 32/15 A3002 RMK A01 T03210151  RH  036%=      5-min Rain = 0
KAM1 042250Z 09010KT 32/15 A3002 RMK A01 T03210150  RH  035%=      5-min Rain = 0
KAM1 042251Z 09011KT 32/15 A3002 RMK A01 T03210149  RH  035%=      5-min Rain = 0
KAM1 042252Z 09010KT 32/15 A3002 RMK A01 T03210149  RH  035%=      5-min Rain = 0
KAM1 042253Z 10010KT 32/15 A3002 RMK A01 T03220149  RH  035%=      5-min Rain = 0
KAM1 042254Z 11009KT 32/15 A3002 RMK A01 T03230149  RH  035%=      5-min Rain = 0
KAM1 042255Z 10008KT 32/15 A3002 RMK A01 T03240149  RH  035%=      5-min Rain = 0
KAM1 042256Z 11010KT 32/15 A3002 RMK A01 T03240148  RH  035%=      5-min Rain = 0
KAM1 042257Z 10011KT 32/15 A3002 RMK A01 T03240148  RH  035%=      5-min Rain = 0
KAM1 042258Z 10009KT 33/15 A3002 RMK A01 T03250148  RH  034%=      5-min Rain = 0
KAM1 042259Z 09008KT 33/15 A3002 RMK A01 T03270149  RH  034%=      5-min Rain = 0
KAM1 042300Z 10009KT 33/15 A3002 RMK A01 T03340150  RH  033%=      5-min Rain = 0
KAM1 042301Z 12009G14KT 34/15 A3002 RMK A01 T03370149  RH  032%=      5-min Rain = 0
KAM1 042302Z 10009G14KT 34/15 A3002 RMK A01 T03380149  RH  032%=      5-min Rain = 0
KAM1 042303Z 11009KT 34/15 A3002 RMK A01 T03370149  RH  032%=      5-min Rain = 0
KAM1 042304Z 10008KT 34/15 A3002 RMK A01 T03350146  RH  032%=      5-min Rain = 0
KAM1 042305Z 10008G13KT 33/15 A3002 RMK A01 T03310146  RH  033%=      5-min Rain = 0
KAM1 042306Z 10009KT 33/15 A3002 RMK A01 T03310154  RH  034%=      5-min Rain = 0
KAM1 042307Z 10015KT 33/16 A3002 RMK A01 T03310157  RH  035%=      5-min Rain = 0
KAM1 042308Z 10014KT 33/16 A3002 RMK A01 T03310161  RH  036%=      5-min Rain = 0
KAM1 042309Z 11013KT 33/16 A3002 RMK A01 T03320163  RH  036%=      5-min Rain = 0
KAM1 042310Z 12014G19KT 33/16 A3001 RMK A01 T03300163  RH  037%=      5-min Rain = 0
KAM1 042311Z 11015G20KT 33/16 A3001 RMK A01 T03260158  RH  036%=      5-min Rain = 0
KAM1 042312Z 10014KT 32/16 A3001 RMK A01 T03230158  RH  037%=      5-min Rain = 0
KAM1 042313Z 10015KT 32/16 A3001 RMK A01 T03210160  RH  038%=      5-min Rain = 0
KAM1 042314Z 10014KT 32/16 A3001 RMK A01 T03210158  RH  038%=      5-min Rain = 0
KAM1 042315Z 10012KT 32/16 A3001 RMK A01 T03200157  RH  038%=      5-min Rain = 0
KAM1 042316Z 09012KT 32/16 A3001 RMK A01 T03200157  RH  038%=      5-min Rain = 0
KAM1 042317Z 09015KT 32/16 A3001 RMK A01 T03200157  RH  037%=      5-min Rain = 0
KAM1 042318Z 09014KT 32/16 A3001 RMK A01 T03190156  RH  037%=      5-min Rain = 0
KAM1 042319Z 10015KT 32/16 A3001 RMK A01 T03190156  RH  038%=      5-min Rain = 0
KAM1 042320Z 10017KT 32/17 A3001 RMK A01 T03200167  RH  040%=      5-min Rain = 0
KAM1 042321Z 09017KT 32/17 A3001 RMK A01 T03220172  RH  041%=      5-min Rain = 0
KAM1 042322Z 10015G24KT 32/18 A3001 RMK A01 T03230177  RH  042%=      5-min Rain = 0
KAM1 042323Z 09017KT 33/18 A3001 RMK A01 T03260178  RH  041%=      5-min Rain = 0
KAM1 042324Z 10019KT 33/18 A3001 RMK A01 T03250178  RH  042%=      5-min Rain = 0
KAM1 042325Z 10020KT 32/18 A3001 RMK A01 T03230176  RH  042%=      5-min Rain = 0
KAM1 042326Z 10019KT 32/18 A3001 RMK A01 T03220175  RH  042%=      5-min Rain = 0
KAM1 042327Z 10023KT 32/17 A3001 RMK A01 T03190172  RH  041%=      5-min Rain = 0
KAM1 042328Z 10021KT 31/17 A3001 RMK A01 T03140169  RH  042%=      5-min Rain = 0
KAM1 042329Z 10021KT 31/17 A3001 RMK A01 T03090168  RH  043%=      5-min Rain = 0
KAM1 042330Z 10023KT 31/16 A3002 RMK A01 T03060164  RH  043%=      5-min Rain = 0
KAM1 042331Z 10022KT 30/16 A3002 RMK A01 T03000163  RH  044%=      5-min Rain = 0
KAM1 042332Z 10022KT 30/16 A3002 RMK A01 T02970164  RH  045%=      5-min Rain = 0
KAM1 042333Z 11020G25KT 30/17 A3002 RMK A01 T02950166  RH  046%=      5-min Rain = 0
KAM1 042334Z 11024KT 29/17 A3002 RMK A01 T02940166  RH  046%=      5-min Rain = 0
KAM1 042335Z 11022KT 29/17 A3002 RMK A01 T02910167  RH  047%=      5-min Rain = 0
KAM1 042336Z 11023KT 29/17 A3002 RMK A01 T02900167  RH  047%=      5-min Rain = 0
KAM1 042337Z 11024KT 29/17 A3002 RMK A01 T02890166  RH  047%=      5-min Rain = 0
KAM1 042338Z 10023KT 29/17 A3002 RMK A01 T02900168  RH  048%=      5-min Rain = 0
KAM1 042339Z 10022KT 29/17 A3002 RMK A01 T02900170  RH  048%=      5-min Rain = 0
KAM1 042340Z 10022G27KT 29/17 A3002 RMK A01 T02890170  RH  049%=      5-min Rain = 0
KAM1 042341Z 10024KT 29/17 A3002 RMK A01 T02890169  RH  048%=      5-min Rain = 0
KAM1 042342Z 10022KT 29/17 A3002 RMK A01 T02890170  RH  049%=      5-min Rain = 0
KAM1 042343Z 10022KT 29/17 A3002 RMK A01 T02890171  RH  049%=      5-min Rain = 0
KAM1 042344Z 10021KT 29/17 A3002 RMK A01 T02890172  RH  049%=      5-min Rain = 0
KAM1 042345Z 10020KT 29/17 A3002 RMK A01 T02910172  RH  049%=      5-min Rain = 0
KAM1 042346Z 10020KT 29/17 A3002 RMK A01 T02920172  RH  048%=      5-min Rain = 0
KAM1 042347Z 11021KT 29/17 A3002 RMK A01 T02920172  RH  048%=      5-min Rain = 0
KAM1 042348Z 10020KT 29/17 A3002 RMK A01 T02920172  RH  048%=      5-min Rain = 0
KAM1 042349Z 10020KT 29/17 A3002 RMK A01 T02900171  RH  049%=      5-min Rain = 0
KAM1 042350Z 10022KT 29/17 A3002 RMK A01 T02880169  RH  049%=      5-min Rain = 0
KAM1 042351Z 09022KT 28/17 A3002 RMK A01 T02840167  RH  049%=      5-min Rain = 0
KAM1 042352Z 11020KT 28/17 A3002 RMK A01 T02810168  RH  050%=      5-min Rain = 0
KAM1 042353Z 11021KT 28/17 A3002 RMK A01 T02800169  RH  051%=      5-min Rain = 0
KAM1 042354Z 11020KT 28/17 A3002 RMK A01 T02770168  RH  051%=      5-min Rain = 0
KAM1 042355Z 11021KT 28/17 A3002 RMK A01 T02750166  RH  051%=      5-min Rain = 0
KAM1 042356Z 10020KT 27/17 A3002 RMK A01 T02740166  RH  052%=      5-min Rain = 0
KAM1 042357Z 10018KT 27/17 A3002 RMK A01 T02740167  RH  052%=      5-min Rain = 0
KAM1 042358Z 10018KT 27/17 A3003 RMK A01 T02740166  RH  052%=      5-min Rain = 0
KAM1 042359Z 11020G25KT 27/17 A3003 RMK A01 T02730165  RH  052%=      5-min Rain = 0
KAM1 050000Z 11020G25KT 27/17 A3003 RMK A01 T02730166  RH  052%=      5-min Rain = 0
KAM1 050001Z 11020KT 27/17 A3003 RMK A01 T02730166  RH  052%=      5-min Rain = 0
KAM1 050002Z 11017KT 27/17 A3003 RMK A01 T02730166  RH  052%=      5-min Rain = 0
KAM1 050003Z 10019KT 27/17 A3003 RMK A01 T02730166  RH  052%=      5-min Rain = 0
KAM1 050004Z 10019KT 27/17 A3003 RMK A01 T02740165  RH  052%=      5-min Rain = 0
KAM1 050005Z 11017G22KT 27/17 A3003 RMK A01 T02740165  RH  051%=      5-min Rain = 0
KAM1 050006Z 11019KT 27/17 A3003 RMK A01 T02740165  RH  051%=      5-min Rain = 0
KAM1 050007Z 12020KT 27/16 A3003 RMK A01 T02740164  RH  051%=      5-min Rain = 0
KAM1 050008Z 11020KT 27/16 A3003 RMK A01 T02740164  RH  051%=      5-min Rain = 0
KAM1 050009Z 11019KT 27/17 A3003 RMK A01 T02740165  RH  051%=      5-min Rain = 0
KAM1 050010Z 11018KT 27/17 A3003 RMK A01 T02740165  RH  051%=      5-min Rain = 0
KAM1 050011Z 11013KT 27/17 A3003 RMK A01 T02740166  RH  052%=      5-min Rain = 0
KAM1 050012Z 12015KT 27/17 A3003 RMK A01 T02740167  RH  052%=      5-min Rain = 0
KAM1 050013Z 12017KT 28/17 A3003 RMK A01 T02750168  RH  052%=      5-min Rain = 0
KAM1 050014Z 12016KT 27/17 A3003 RMK A01 T02740169  RH  053%=      5-min Rain = 0
KAM1 050015Z 11017KT 27/17 A3003 RMK A01 T02730170  RH  053%=      5-min Rain = 0
KAM1 050016Z 12017KT 27/17 A3003 RMK A01 T02730170  RH  053%=      5-min Rain = 0
KAM1 050017Z 12016KT 27/17 A3003 RMK A01 T02730171  RH  054%=      5-min Rain = 0
KAM1 050018Z 12014KT 27/17 A3003 RMK A01 T02730172  RH  054%=      5-min Rain = 0
KAM1 050019Z 11011KT 27/17 A3003 RMK A01 T02720172  RH  054%=      5-min Rain = 0
KAM1 050020Z 12012KT 27/17 A3004 RMK A01 T02720172  RH  054%=      5-min Rain = 0
KAM1 050021Z 12013KT 27/17 A3004 RMK A01 T02720171  RH  054%=      5-min Rain = 0
KAM1 050022Z 12014KT 27/17 A3004 RMK A01 T02720172  RH  054%=      5-min Rain = 0
KAM1 050023Z 12015KT 27/17 A3004 RMK A01 T02720171  RH  054%=      5-min Rain = 0
KAM1 050024Z 12015KT 27/17 A3004 RMK A01 T02720170  RH  054%=      5-min Rain = 0
KAM1 050025Z 12014KT 27/17 A3004 RMK A01 T02720170  RH  054%=      5-min Rain = 0
KAM1 050026Z 12014KT 27/17 A3004 RMK A01 T02720171  RH  054%=      5-min Rain = 0
KAM1 050027Z 12015KT 27/17 A3004 RMK A01 T02720171  RH  054%=      5-min Rain = 0
KAM1 050028Z 12018KT 27/17 A3004 RMK A01 T02720170  RH  054%=      5-min Rain = 0
KAM1 050029Z 12014KT 27/17 A3004 RMK A01 T02720169  RH  053%=      5-min Rain = 0
KAM1 050030Z 12017KT 27/17 A3004 RMK A01 T02720168  RH  053%=      5-min Rain = 0
KAM1 050031Z 12017KT 27/17 A3003 RMK A01 T02720168  RH  053%=      5-min Rain = 0
KAM1 050032Z 12015KT 27/17 A3003 RMK A01 T02720168  RH  053%=      5-min Rain = 0
KAM1 050033Z 12016KT 27/17 A3003 RMK A01 T02720169  RH  053%=      5-min Rain = 0
KAM1 050034Z 11016KT 27/17 A3004 RMK A01 T02720169  RH  053%=      5-min Rain = 0
KAM1 050035Z 12017KT 27/17 A3004 RMK A01 T02720170  RH  053%=      5-min Rain = 0
KAM1 050036Z 11017KT 27/17 A3004 RMK A01 T02720169  RH  053%=      5-min Rain = 0
KAM1 050037Z 12018KT 27/17 A3004 RMK A01 T02710169  RH  053%=      5-min Rain = 0
KAM1 050038Z 12017G22KT 27/17 A3004 RMK A01 T02710168  RH  053%=      5-min Rain = 0
KAM1 050039Z 12016KT 27/17 A3004 RMK A01 T02710168  RH  053%=      5-min Rain = 0
KAM1 050040Z 12016KT 27/17 A3004 RMK A01 T02700169  RH  054%=      5-min Rain = 0
KAM1 050041Z 12018KT 27/17 A3004 RMK A01 T02700170  RH  054%=      5-min Rain = 0
KAM1 050042Z 12017KT 27/17 A3004 RMK A01 T02700171  RH  055%=      5-min Rain = 0
KAM1 050043Z 11015KT 27/17 A3004 RMK A01 T02700172  RH  055%=      5-min Rain = 0
KAM1 050044Z 12016KT 27/17 A3004 RMK A01 T02700173  RH  055%=      5-min Rain = 0
KAM1 050045Z 12013KT 27/17 A3004 RMK A01 T02690172  RH  055%=      5-min Rain = 0
KAM1 050046Z 12016KT 27/17 A3004 RMK A01 T02690171  RH  055%=      5-min Rain = 0
KAM1 050047Z 13013KT 27/17 A3004 RMK A01 T02690171  RH  055%=      5-min Rain = 0
KAM1 050048Z 14010KT 27/17 A3004 RMK A01 T02690173  RH  056%=      5-min Rain = 0
KAM1 050049Z 14010KT 27/18 A3004 RMK A01 T02690175  RH  056%=      5-min Rain = 0
KAM1 050050Z 14010KT 27/18 A3004 RMK A01 T02680175  RH  056%=      5-min Rain = 0
KAM1 050051Z 13011KT 27/17 A3004 RMK A01 T02680174  RH  056%=      5-min Rain = 0
KAM1 050052Z 13013KT 27/17 A3004 RMK A01 T02680172  RH  056%=      5-min Rain = 0
KAM1 050053Z 13011KT 27/17 A3004 RMK A01 T02680173  RH  056%=      5-min Rain = 0
KAM1 050054Z 14008KT 27/18 A3004 RMK A01 T02680175  RH  057%=      5-min Rain = 0
KAM1 050055Z 13010KT 27/18 A3004 RMK A01 T02680176  RH  057%=      5-min Rain = 0
KAM1 050056Z 14012KT 27/18 A3004 RMK A01 T02680176  RH  057%=      5-min Rain = 0
KAM1 050057Z 13010KT 27/18 A3004 RMK A01 T02680176  RH  057%=      5-min Rain = 0
KAM1 050058Z 13009KT 27/18 A3004 RMK A01 T02680176  RH  057%=      5-min Rain = 0
KAM1 050059Z 13009KT 27/18 A3004 RMK A01 T02690176  RH  057%=      5-min Rain = 0
KAM1 050100Z 13011KT 27/18 A3004 RMK A01 T02700175  RH  056%=      5-min Rain = 0
KAM1 050101Z 13009KT 27/17 A3004 RMK A01 T02710174  RH  055%=      5-min Rain = 0
KAM1 050102Z 13010KT 27/17 A3004 RMK A01 T02720174  RH  055%=      5-min Rain = 0
KAM1 050103Z 13010KT 27/17 A3004 RMK A01 T02730174  RH  055%=      5-min Rain = 0
KAM1 050104Z 12012KT 27/17 A3004 RMK A01 T02740173  RH  054%=      5-min Rain = 0
KAM1 050105Z 12013KT 27/17 A3004 RMK A01 T02740172  RH  053%=      5-min Rain = 0
KAM1 050106Z 12013KT 27/17 A3004 RMK A01 T02740171  RH  053%=      5-min Rain = 0
KAM1 050107Z 12012KT 27/17 A3004 RMK A01 T02740172  RH  054%=      5-min Rain = 0
KAM1 050108Z 13011KT 27/17 A3004 RMK A01 T02740172  RH  054%=      5-min Rain = 0
KAM1 050109Z 12013KT 27/17 A3004 RMK A01 T02740172  RH  054%=      5-min Rain = 0
KAM1 050110Z 12012KT 27/17 A3004 RMK A01 T02740172  RH  054%=      5-min Rain = 0
KAM1 050111Z 11012KT 28/17 A3004 RMK A01 T02750172  RH  054%=      5-min Rain = 0
KAM1 050112Z 11012KT 28/17 A3004 RMK A01 T02750172  RH  054%=      5-min Rain = 0
KAM1 050113Z 12013KT 27/17 A3004 RMK A01 T02740172  RH  054%=      5-min Rain = 0
KAM1 050114Z 12010KT 27/17 A3004 RMK A01 T02730172  RH  054%=      5-min Rain = 0
KAM1 050115Z 11011KT 27/17 A3004 RMK A01 T02730173  RH  054%=      5-min Rain = 0
KAM1 050116Z 11012KT 27/17 A3004 RMK A01 T02730173  RH  054%=      5-min Rain = 0
KAM1 050117Z 11011KT 27/17 A3004 RMK A01 T02730173  RH  054%=      5-min Rain = 0
KAM1 050118Z 11011KT 27/17 A3004 RMK A01 T02730173  RH  054%=      5-min Rain = 0
KAM1 050119Z 12009KT 27/17 A3004 RMK A01 T02730173  RH  054%=      5-min Rain = 0
KAM1 050120Z 12010KT 27/17 A3004 RMK A01 T02730173  RH  054%=      5-min Rain = 0
KAM1 050121Z 12009KT 27/17 A3004 RMK A01 T02730173  RH  054%=      5-min Rain = 0
KAM1 050122Z 11011KT 27/17 A3004 RMK A01 T02730173  RH  054%=      5-min Rain = 0
KAM1 050123Z 13009KT 27/17 A3004 RMK A01 T02730173  RH  054%=      5-min Rain = 0
KAM1 050124Z 12011KT 27/17 A3004 RMK A01 T02730173  RH  054%=      5-min Rain = 0
KAM1 050125Z 12012KT 27/17 A3004 RMK A01 T02720172  RH  054%=      5-min Rain = 0
KAM1 050126Z 13012KT 27/17 A3004 RMK A01 T02720172  RH  054%=      5-min Rain = 0
KAM1 050127Z 12013KT 27/17 A3004 RMK A01 T02710171  RH  054%=      5-min Rain = 0
KAM1 050128Z 12010KT 27/17 A3004 RMK A01 T02710171  RH  055%=      5-min Rain = 0
KAM1 050129Z 12012KT 27/17 A3004 RMK A01 T02700172  RH  055%=      5-min Rain = 0
KAM1 050130Z 12012KT 27/17 A3004 RMK A01 T02690172  RH  055%=      5-min Rain = 0
KAM1 050131Z 12011KT 27/17 A3004 RMK A01 T02690172  RH  055%=      5-min Rain = 0
KAM1 050132Z 12012KT 27/17 A3004 RMK A01 T02680171  RH  055%=      5-min Rain = 0
KAM1 050133Z 12011KT 27/17 A3004 RMK A01 T02670171  RH  056%=      5-min Rain = 0
KAM1 050134Z 12011KT 27/17 A3004 RMK A01 T02670172  RH  056%=      5-min Rain = 0
KAM1 050135Z 12012KT 27/17 A3004 RMK A01 T02660171  RH  056%=      5-min Rain = 0
KAM1 050136Z 12011KT 27/17 A3004 RMK A01 T02650172  RH  056%=      5-min Rain = 0
KAM1 050137Z 12010KT 27/17 A3004 RMK A01 T02650172  RH  056%=      5-min Rain = 0
KAM1 050138Z 12011KT 27/17 A3004 RMK A01 T02650171  RH  057%=      5-min Rain = 0
KAM1 050139Z 12011KT 26/17 A3004 RMK A01 T02640171  RH  057%=      5-min Rain = 0
KAM1 050140Z 11012KT 26/17 A3004 RMK A01 T02630171  RH  057%=      5-min Rain = 0
KAM1 050141Z 11010KT 26/17 A3004 RMK A01 T02630171  RH  057%=      5-min Rain = 0
KAM1 050142Z 12011KT 26/17 A3004 RMK A01 T02630171  RH  057%=      5-min Rain = 0
KAM1 050143Z 12011KT 26/17 A3004 RMK A01 T02620170  RH  057%=      5-min Rain = 0
KAM1 050144Z 12010KT 26/17 A3004 RMK A01 T02630171  RH  057%=      5-min Rain = 0
KAM1 050145Z 12010KT 26/17 A3004 RMK A01 T02620170  RH  057%=      5-min Rain = 0
KAM1 050146Z 12010KT 26/17 A3004 RMK A01 T02620170  RH  057%=      5-min Rain = 0
KAM1 050147Z 12011KT 26/17 A3004 RMK A01 T02610170  RH  057%=      5-min Rain = 0
KAM1 050148Z 12012KT 26/17 A3004 RMK A01 T02600170  RH  057%=      5-min Rain = 0
KAM1 050149Z 12010KT 26/17 A3004 RMK A01 T02610169  RH  057%=      5-min Rain = 0
KAM1 050150Z 12010KT 26/17 A3004 RMK A01 T02610169  RH  057%=      5-min Rain = 0
KAM1 050151Z 11009KT 26/17 A3004 RMK A01 T02600169  RH  057%=      5-min Rain = 0
KAM1 050152Z 12009KT 26/17 A3004 RMK A01 T02600169  RH  057%=      5-min Rain = 0
KAM1 050153Z 12010KT 26/17 A3004 RMK A01 T02590169  RH  057%=      5-min Rain = 0
KAM1 050154Z 12009KT 26/17 A3004 RMK A01 T02590169  RH  058%=      5-min Rain = 0
KAM1 050155Z 12009KT 26/17 A3004 RMK A01 T02580169  RH  058%=      5-min Rain = 0
KAM1 050156Z 12010KT 26/17 A3004 RMK A01 T02580169  RH  058%=      5-min Rain = 0
KAM1 050157Z 11010KT 26/17 A3004 RMK A01 T02580169  RH  058%=      5-min Rain = 0
KAM1 050158Z 11010KT 26/17 A3004 RMK A01 T02580169  RH  058%=      5-min Rain = 0
KAM1 050159Z 11009KT 26/17 A3004 RMK A01 T02580169  RH  058%=      5-min Rain = 0
KAM1 050200Z 11010KT 26/17 A3004 RMK A01 T02570169  RH  058%=      5-min Rain = 0
KAM1 050201Z 11011KT 26/17 A3004 RMK A01 T02570169  RH  058%=      5-min Rain = 0
KAM1 050202Z 11011KT 26/17 A3004 RMK A01 T02570169  RH  058%=      5-min Rain = 0
KAM1 050203Z 11010KT 26/17 A3004 RMK A01 T02570168  RH  058%=      5-min Rain = 0
KAM1 050204Z 11011KT 26/17 A3004 RMK A01 T02570168  RH  058%=      5-min Rain = 0
KAM1 050205Z 11010KT 26/17 A3004 RMK A01 T02570168  RH  058%=      5-min Rain = 0
KAM1 050206Z 11011KT 26/17 A3004 RMK A01 T02560168  RH  058%=      5-min Rain = 0
KAM1 050207Z 11010KT 26/17 A3004 RMK A01 T02560168  RH  058%=      5-min Rain = 0
KAM1 050208Z 12009KT 26/17 A3004 RMK A01 T02550168  RH  058%=      5-min Rain = 0
KAM1 050209Z 11010KT 26/17 A3004 RMK A01 T02550167  RH  058%=      5-min Rain = 0
KAM1 050210Z 12009KT 25/17 A3004 RMK A01 T02540167  RH  059%=      5-min Rain = 0
KAM1 050211Z 11008KT 25/17 A3004 RMK A01 T02530167  RH  059%=      5-min Rain = 0
KAM1 050212Z 11008KT 25/17 A3004 RMK A01 T02530167  RH  059%=      5-min Rain = 0
KAM1 050213Z 12009KT 25/17 A3004 RMK A01 T02520167  RH  059%=      5-min Rain = 0
KAM1 050214Z 12009KT 25/17 A3004 RMK A01 T02510168  RH  060%=      5-min Rain = 0
KAM1 050215Z 12009KT 25/17 A3004 RMK A01 T02520168  RH  060%=      5-min Rain = 0
KAM1 050216Z 11009KT 25/17 A3004 RMK A01 T02510168  RH  060%=      5-min Rain = 0
KAM1 050217Z 11010KT 25/17 A3004 RMK A01 T02510169  RH  060%=      5-min Rain = 0
KAM1 050218Z 11009KT 25/17 A3004 RMK A01 T02510169  RH  060%=      5-min Rain = 0
KAM1 050219Z 10010KT 25/17 A3004 RMK A01 T02510169  RH  060%=      5-min Rain = 0
KAM1 050220Z 10009KT 25/17 A3004 RMK A01 T02510169  RH  060%=      5-min Rain = 0
KAM1 050221Z 10009KT 25/17 A3004 RMK A01 T02500169  RH  061%=      5-min Rain = 0
KAM1 050222Z 11009KT 25/17 A3004 RMK A01 T02500169  RH  061%=      5-min Rain = 0
KAM1 050223Z 11010KT 25/17 A3004 RMK A01 T02490170  RH  061%=      5-min Rain = 0
KAM1 050224Z 11010KT 25/17 A3004 RMK A01 T02490170  RH  062%=      5-min Rain = 0
KAM1 050225Z 11010KT 25/17 A3004 RMK A01 T02480170  RH  062%=      5-min Rain = 0
KAM1 050226Z 11011KT 25/17 A3004 RMK A01 T02490171  RH  062%=      5-min Rain = 0
KAM1 050227Z 11011KT 25/17 A3004 RMK A01 T02480171  RH  062%=      5-min Rain = 0
KAM1 050228Z 11013KT 25/17 A3003 RMK A01 T02480172  RH  062%=      5-min Rain = 0
KAM1 050229Z 11012KT 25/17 A3003 RMK A01 T02480172  RH  063%=      5-min Rain = 0
KAM1 050230Z 11013KT 25/17 A3003 RMK A01 T02480173  RH  063%=      5-min Rain = 0
KAM1 050231Z 12013G18KT 25/17 A3004 RMK A01 T02480174  RH  064%=      5-min Rain = 0
KAM1 050232Z 12013KT 25/18 A3004 RMK A01 T02480176  RH  064%=      5-min Rain = 0
KAM1 050233Z 12011KT 25/18 A3004 RMK A01 T02480177  RH  065%=      5-min Rain = 0
KAM1 050234Z 12010KT 25/18 A3004 RMK A01 T02470177  RH  065%=      5-min Rain = 0
KAM1 050235Z 13012KT 25/18 A3004 RMK A01 T02460179  RH  066%=      5-min Rain = 0
KAM1 050236Z 13012KT 25/18 A3004 RMK A01 T02450180  RH  067%=      5-min Rain = 0
KAM1 050237Z 13010KT 25/18 A3004 RMK A01 T02450181  RH  068%=      5-min Rain = 0
KAM1 050238Z 13011KT 24/18 A3004 RMK A01 T02440181  RH  068%=      5-min Rain = 0
KAM1 050239Z 13010KT 24/18 A3004 RMK A01 T02440182  RH  068%=      5-min Rain = 0
KAM1 050240Z 14009KT 24/18 A3004 RMK A01 T02440182  RH  069%=      5-min Rain = 0
KAM1 050241Z 14011KT 24/18 A3004 RMK A01 T02430183  RH  069%=      5-min Rain = 0
KAM1 050242Z 14009KT 24/18 A3004 RMK A01 T02430183  RH  069%=      5-min Rain = 0
KAM1 050243Z 14010KT 24/18 A3004 RMK A01 T02430183  RH  069%=      5-min Rain = 0
KAM1 050244Z 14008KT 24/18 A3004 RMK A01 T02430184  RH  070%=      5-min Rain = 0
KAM1 050245Z 13010KT 24/18 A3004 RMK A01 T02420184  RH  070%=      5-min Rain = 0
KAM1 050246Z 13010KT 24/18 A3005 RMK A01 T02420184  RH  070%=      5-min Rain = 0
KAM1 050247Z 13009KT 24/18 A3005 RMK A01 T02410184  RH  070%=      5-min Rain = 0
KAM1 050248Z 13009KT 24/18 A3005 RMK A01 T02410184  RH  071%=      5-min Rain = 0
KAM1 050249Z 12008KT 24/18 A3005 RMK A01 T02400184  RH  071%=      5-min Rain = 0
KAM1 050250Z 12010KT 24/19 A3005 RMK A01 T02390185  RH  071%=      5-min Rain = 0
KAM1 050251Z 12009KT 24/19 A3005 RMK A01 T02380185  RH  072%=      5-min Rain = 0
KAM1 050252Z 12009KT 24/19 A3005 RMK A01 T02380185  RH  072%=      5-min Rain = 0
KAM1 050253Z 12009KT 24/19 A3005 RMK A01 T02370185  RH  073%=      5-min Rain = 0
KAM1 050254Z 12010KT 24/19 A3005 RMK A01 T02360185  RH  073%=      5-min Rain = 0
KAM1 050255Z 13010KT 24/19 A3005 RMK A01 T02370186  RH  073%=      5-min Rain = 0
KAM1 050256Z 12009KT 24/19 A3005 RMK A01 T02360186  RH  073%=      5-min Rain = 0
KAM1 050257Z 12010KT 24/19 A3005 RMK A01 T02360186  RH  073%=      5-min Rain = 0
KAM1 050258Z 12011KT 24/19 A3005 RMK A01 T02360187  RH  074%=      5-min Rain = 0
KAM1 050259Z 12009KT 24/19 A3005 RMK A01 T02360187  RH  074%=      5-min Rain = 0
KAM1 050300Z 12008KT 24/19 A3005 RMK A01 T02360187  RH  074%=      5-min Rain = 0
KAM1 050301Z 12008KT 24/19 A3005 RMK A01 T02360187  RH  074%=      5-min Rain = 0
KAM1 050302Z 13008KT 24/19 A3005 RMK A01 T02350187  RH  074%=      5-min Rain = 0
KAM1 050303Z 13008KT 24/19 A3005 RMK A01 T02350186  RH  074%=      5-min Rain = 0
KAM1 050304Z 13007KT 23/19 A3005 RMK A01 T02340187  RH  075%=      5-min Rain = 0
KAM1 050305Z 12009KT 23/19 A3005 RMK A01 T02340187  RH  075%=      5-min Rain = 0
KAM1 050306Z 12010KT 23/19 A3005 RMK A01 T02340188  RH  075%=      5-min Rain = 0
KAM1 050307Z 12009KT 23/19 A3005 RMK A01 T02340188  RH  076%=      5-min Rain = 0
KAM1 050308Z 12009KT 23/19 A3005 RMK A01 T02340188  RH  075%=      5-min Rain = 0
KAM1 050309Z 12008KT 23/19 A3006 RMK A01 T02330188  RH  076%=      5-min Rain = 0
KAM1 050310Z 12009KT 23/19 A3006 RMK A01 T02330188  RH  076%=      5-min Rain = 0
KAM1 050311Z 12010KT 23/19 A3006 RMK A01 T02330189  RH  076%=      5-min Rain = 0
KAM1 050312Z 12010KT 23/19 A3006 RMK A01 T02330189  RH  076%=      5-min Rain = 0
KAM1 050313Z 12009KT 23/19 A3006 RMK A01 T02330189  RH  076%=      5-min Rain = 0
KAM1 050314Z 13010KT 23/19 A3006 RMK A01 T02330189  RH  076%=      5-min Rain = 0
KAM1 050315Z 13010KT 23/19 A3006 RMK A01 T02320189  RH  077%=      5-min Rain = 0
KAM1 050316Z 13010KT 23/19 A3006 RMK A01 T02320189  RH  077%=      5-min Rain = 0
KAM1 050317Z 13010KT 23/19 A3006 RMK A01 T02320189  RH  076%=      5-min Rain = 0
KAM1 050318Z 13009KT 23/19 A3006 RMK A01 T02320188  RH  076%=      5-min Rain = 0
KAM1 050319Z 14011KT 23/19 A3006 RMK A01 T02320188  RH  076%=      5-min Rain = 0
KAM1 050320Z 13011KT 23/19 A3006 RMK A01 T02320187  RH  076%=      5-min Rain = 0
KAM1 050321Z 13010KT 23/19 A3006 RMK A01 T02330187  RH  075%=      5-min Rain = 0
KAM1 050322Z 14010KT 23/19 A3006 RMK A01 T02330186  RH  075%=      5-min Rain = 0
KAM1 050323Z 13009KT 23/19 A3006 RMK A01 T02330185  RH  075%=      5-min Rain = 0
KAM1 050324Z 13011KT 23/19 A3006 RMK A01 T02330185  RH  075%=      5-min Rain = 0
KAM1 050325Z 13010KT 23/19 A3006 RMK A01 T02330185  RH  074%=      5-min Rain = 0
KAM1 050326Z 13009KT 23/18 A3006 RMK A01 T02330184  RH  074%=      5-min Rain = 0
KAM1 050327Z 13009KT 23/18 A3006 RMK A01 T02320184  RH  074%=      5-min Rain = 0
KAM1 050328Z 13009KT 23/18 A3006 RMK A01 T02320184  RH  074%=      5-min Rain = 0
KAM1 050329Z 13010KT 23/18 A3006 RMK A01 T02320184  RH  074%=      5-min Rain = 0
KAM1 050330Z 14011KT 23/18 A3006 RMK A01 T02320183  RH  074%=      5-min Rain = 0
KAM1 050331Z 13011KT 23/18 A3006 RMK A01 T02320182  RH  074%=      5-min Rain = 0
KAM1 050332Z 13013KT 23/18 A3006 RMK A01 T02320181  RH  073%=      5-min Rain = 0
KAM1 050333Z 13013KT 23/18 A3006 RMK A01 T02320179  RH  072%=      5-min Rain = 0
KAM1 050334Z 13012KT 23/18 A3006 RMK A01 T02320178  RH  072%=      5-min Rain = 0
KAM1 050335Z 13013KT 23/18 A3006 RMK A01 T02320178  RH  072%=      5-min Rain = 0
KAM1 050336Z 13013KT 23/18 A3006 RMK A01 T02320177  RH  071%=      5-min Rain = 0
KAM1 050337Z 13011KT 23/18 A3006 RMK A01 T02320177  RH  071%=      5-min Rain = 0
KAM1 050338Z 13011KT 23/18 A3006 RMK A01 T02320177  RH  071%=      5-min Rain = 0
KAM1 050339Z 13012KT 23/18 A3006 RMK A01 T02310177  RH  072%=      5-min Rain = 0
KAM1 050340Z 13012KT 23/18 A3006 RMK A01 T02310177  RH  072%=      5-min Rain = 0
KAM1 050341Z 13012KT 23/18 A3006 RMK A01 T02300177  RH  072%=      5-min Rain = 0
KAM1 050342Z 13011KT 23/18 A3006 RMK A01 T02300177  RH  072%=      5-min Rain = 0
KAM1 050343Z 13010KT 23/18 A3006 RMK A01 T02300177  RH  072%=      5-min Rain = 0
KAM1 050344Z 13010KT 23/18 A3006 RMK A01 T02300176  RH  072%=      5-min Rain = 0
KAM1 050345Z 13010KT 23/18 A3006 RMK A01 T02290176  RH  072%=      5-min Rain = 0
KAM1 050346Z 13009KT 23/18 A3006 RMK A01 T02290176  RH  072%=      5-min Rain = 0
KAM1 050347Z 13010KT 23/18 A3007 RMK A01 T02290176  RH  072%=      5-min Rain = 0
KAM1 050348Z 13011KT 23/18 A3007 RMK A01 T02290176  RH  072%=      5-min Rain = 0
KAM1 050349Z 13008KT 23/18 A3007 RMK A01 T02290176  RH  072%=      5-min Rain = 0
KAM1 050350Z 13008KT 23/18 A3007 RMK A01 T02290176  RH  072%=      5-min Rain = 0
KAM1 050351Z 13008KT 23/18 A3007 RMK A01 T02280176  RH  072%=      5-min Rain = 0
KAM1 050352Z 12009KT 23/18 A3007 RMK A01 T02280176  RH  073%=      5-min Rain = 0
KAM1 050353Z 12009KT 23/18 A3007 RMK A01 T02270176  RH  073%=      5-min Rain = 0
KAM1 050354Z 13009KT 23/18 A3007 RMK A01 T02270176  RH  073%=      5-min Rain = 0
KAM1 050355Z 12010KT 23/18 A3008 RMK A01 T02270176  RH  073%=      5-min Rain = 0
KAM1 050356Z 12009KT 23/18 A3008 RMK A01 T02270176  RH  073%=      5-min Rain = 0
KAM1 050357Z 12008KT 23/18 A3008 RMK A01 T02270176  RH  073%=      5-min Rain = 0
KAM1 050358Z 12009KT 23/18 A3008 RMK A01 T02270176  RH  073%=      5-min Rain = 0
KAM1 050359Z 12009KT 23/18 A3008 RMK A01 T02270176  RH  073%=      5-min Rain = 0
KAM1 050400Z 13008KT 23/18 A3008 RMK A01 T02270176  RH  073%=      5-min Rain = 0
KAM1 050401Z 12009KT 23/18 A3008 RMK A01 T02270176  RH  073%=      5-min Rain = 0
KAM1 050402Z 13008KT 23/18 A3008 RMK A01 T02270176  RH  073%=      5-min Rain = 0
KAM1 050403Z 12007KT 23/18 A3008 RMK A01 T02270176  RH  073%=      5-min Rain = 0
KAM1 050404Z 12007KT 23/18 A3008 RMK A01 T02260176  RH  073%=      5-min Rain = 0
KAM1 050405Z 13007KT 23/18 A3008 RMK A01 T02260175  RH  073%=      5-min Rain = 0
KAM1 050406Z 13007KT 23/18 A3008 RMK A01 T02250176  RH  073%=      5-min Rain = 0
KAM1 050407Z 13008KT 23/18 A3008 RMK A01 T02250176  RH  074%=      5-min Rain = 0
KAM1 050408Z 12008KT 23/18 A3008 RMK A01 T02250176  RH  074%=      5-min Rain = 0
KAM1 050409Z 12007KT 23/18 A3008 RMK A01 T02250176  RH  074%=      5-min Rain = 0
KAM1 050410Z 12008KT 23/18 A3008 RMK A01 T02250176  RH  074%=      5-min Rain = 0
KAM1 050411Z 12008KT 23/18 A3008 RMK A01 T02250175  RH  073%=      5-min Rain = 0
KAM1 050412Z 12008KT 23/18 A3008 RMK A01 T02250175  RH  073%=      5-min Rain = 0
KAM1 050413Z 12007KT 23/18 A3008 RMK A01 T02250175  RH  073%=      5-min Rain = 0
KAM1 050414Z 12008KT 23/18 A3008 RMK A01 T02250175  RH  074%=      5-min Rain = 0
KAM1 050415Z 12007KT 23/18 A3008 RMK A01 T02250175  RH  074%=      5-min Rain = 0
KAM1 050416Z 12007KT 22/18 A3008 RMK A01 T02240175  RH  074%=      5-min Rain = 0
KAM1 050417Z 12007KT 22/18 A3008 RMK A01 T02240175  RH  074%=      5-min Rain = 0
KAM1 050418Z 12007KT 22/18 A3008 RMK A01 T02240175  RH  074%=      5-min Rain = 0
KAM1 050419Z 12007KT 22/18 A3008 RMK A01 T02240175  RH  074%=      5-min Rain = 0
KAM1 050420Z 12007KT 22/18 A3008 RMK A01 T02230175  RH  074%=      5-min Rain = 0
KAM1 050421Z 12006KT 22/18 A3008 RMK A01 T02240175  RH  074%=      5-min Rain = 0
KAM1 050422Z 11007KT 22/18 A3008 RMK A01 T02240175  RH  074%=      5-min Rain = 0
KAM1 050423Z 12007KT 22/18 A3008 RMK A01 T02240175  RH  074%=      5-min Rain = 0
KAM1 050424Z 12007KT 22/18 A3008 RMK A01 T02240175  RH  074%=      5-min Rain = 0
KAM1 050425Z 12007KT 22/18 A3008 RMK A01 T02240175  RH  074%=      5-min Rain = 0
KAM1 050426Z 11007KT 22/18 A3008 RMK A01 T02230175  RH  074%=      5-min Rain = 0
KAM1 050427Z 11007KT 22/18 A3008 RMK A01 T02230175  RH  074%=      5-min Rain = 0
KAM1 050428Z 12008KT 22/18 A3008 RMK A01 T02230175  RH  074%=      5-min Rain = 0
KAM1 050429Z 11007KT 22/18 A3007 RMK A01 T02230175  RH  074%=      5-min Rain = 0
KAM1 050430Z 11007KT 22/18 A3007 RMK A01 T02230175  RH  074%=      5-min Rain = 0
KAM1 050431Z 11007KT 22/18 A3007 RMK A01 T02230175  RH  074%=      5-min Rain = 0
KAM1 050432Z 12006KT 22/18 A3007 RMK A01 T02230176  RH  074%=      5-min Rain = 0
KAM1 050433Z 12006KT 22/18 A3007 RMK A01 T02230176  RH  074%=      5-min Rain = 0
KAM1 050434Z 12006KT 22/18 A3008 RMK A01 T02230175  RH  075%=      5-min Rain = 0
KAM1 050435Z 12006KT 22/18 A3007 RMK A01 T02220175  RH  075%=      5-min Rain = 0
KAM1 050436Z 12006KT 22/18 A3007 RMK A01 T02220176  RH  075%=      5-min Rain = 0
KAM1 050437Z 12006KT 22/18 A3007 RMK A01 T02220176  RH  075%=      5-min Rain = 0
KAM1 050438Z 11006KT 22/18 A3007 RMK A01 T02220176  RH  075%=      5-min Rain = 0
KAM1 050439Z 11005KT 22/18 A3007 RMK A01 T02210176  RH  075%=      5-min Rain = 0
KAM1 050440Z 11006KT 22/18 A3007 RMK A01 T02210175  RH  075%=      5-min Rain = 0
KAM1 050441Z 11006KT 22/18 A3007 RMK A01 T02210175  RH  075%=      5-min Rain = 0
KAM1 050442Z 11005KT 22/18 A3007 RMK A01 T02210175  RH  075%=      5-min Rain = 0
KAM1 050443Z 11006KT 22/18 A3007 RMK A01 T02210175  RH  075%=      5-min Rain = 0
KAM1 050444Z 11005KT 22/18 A3007 RMK A01 T02210176  RH  075%=      5-min Rain = 0
KAM1 050445Z 11005KT 22/18 A3007 RMK A01 T02210176  RH  076%=      5-min Rain = 0
KAM1 050446Z 11005KT 22/18 A3007 RMK A01 T02200176  RH  076%=      5-min Rain = 0
KAM1 050447Z 12006KT 22/18 A3007 RMK A01 T02200175  RH  076%=      5-min Rain = 0
KAM1 050448Z 12006KT 22/18 A3007 RMK A01 T02200176  RH  076%=      5-min Rain = 0
KAM1 050449Z 12006KT 22/18 A3007 RMK A01 T02200176  RH  076%=      5-min Rain = 0
KAM1 050450Z 12006KT 22/18 A3007 RMK A01 T02200176  RH  076%=      5-min Rain = 0
KAM1 050451Z 12005KT 22/18 A3007 RMK A01 T02200176  RH  076%=      5-min Rain = 0
KAM1 050452Z 11005KT 22/18 A3007 RMK A01 T02200176  RH  076%=      5-min Rain = 0
KAM1 050453Z 11005KT 22/18 A3007 RMK A01 T02190175  RH  076%=      5-min Rain = 0
KAM1 050454Z 11006KT 22/18 A3007 RMK A01 T02200176  RH  076%=      5-min Rain = 0
KAM1 050455Z 11005KT 22/18 A3007 RMK A01 T02190176  RH  076%=      5-min Rain = 0
KAM1 050456Z 12005KT 22/18 A3007 RMK A01 T02190175  RH  076%=      5-min Rain = 0
KAM1 050457Z 12005KT 22/18 A3008 RMK A01 T02200176  RH  076%=      5-min Rain = 0
KAM1 050458Z 12005KT 22/18 A3008 RMK A01 T02190176  RH  076%=      5-min Rain = 0
KAM1 050459Z 12005KT 22/18 A3008 RMK A01 T02190175  RH  076%=      5-min Rain = 0

Page generated in 0.0703 seconds.